<?xml version="1.0" encoding="UTF-8" standalone="no" ?>
<gpx xmlns="http://www.topografix.com/GPX/1/1" xmlns:xsi="http://www.w3.org/2001/XMLSchema-instance" xsi:schemaLocation="http://www.topografix.com/GPX/1/1 http://www.topografix.com/GPX/1/1/gpx.xsd" version="1.1" creator="VisuGPX - https://www.visugpx.com">
  <metadata>
    <name>Cucuron-Vaugines</name>
    <desc><![CDATA[Boucle de 16 km, dénivelés cumulés  -500 m, au départ de Cucuron]]></desc>
  </metadata>
  <trk>
    <name><![CDATA[2014-10-29 15:37:23]]></name>
    <trkseg>
      <trkpt lat="43.77475" lon="5.43879">
        <ele>306.46</ele>
        <time>2014-10-29T07:51:53Z</time>
      </trkpt>
      <trkpt lat="43.7749" lon="5.439">
        <ele>306.74</ele>
        <time>2014-10-29T07:52:14Z</time>
      </trkpt>
      <trkpt lat="43.77492" lon="5.43901">
        <ele>306.44</ele>
        <time>2014-10-29T07:52:47Z</time>
      </trkpt>
      <trkpt lat="43.77493" lon="5.43899">
        <ele>307.78</ele>
        <time>2014-10-29T07:53:04Z</time>
      </trkpt>
      <trkpt lat="43.77492" lon="5.43897">
        <ele>307.9</ele>
        <time>2014-10-29T07:53:22Z</time>
      </trkpt>
      <trkpt lat="43.77493" lon="5.43897">
        <ele>308.33</ele>
        <time>2014-10-29T07:53:42Z</time>
      </trkpt>
      <trkpt lat="43.77499" lon="5.43901">
        <ele>309.06</ele>
        <time>2014-10-29T07:54:05Z</time>
      </trkpt>
      <trkpt lat="43.77501" lon="5.43903">
        <ele>309.78</ele>
        <time>2014-10-29T07:54:35Z</time>
      </trkpt>
      <trkpt lat="43.77507" lon="5.43904">
        <ele>310.47</ele>
        <time>2014-10-29T07:55:03Z</time>
      </trkpt>
      <trkpt lat="43.77502" lon="5.43902">
        <ele>311.28</ele>
        <time>2014-10-29T07:55:36Z</time>
      </trkpt>
      <trkpt lat="43.77494" lon="5.43898">
        <ele>311.69</ele>
        <time>2014-10-29T07:56:06Z</time>
      </trkpt>
      <trkpt lat="43.77493" lon="5.43897">
        <ele>312.52</ele>
        <time>2014-10-29T07:56:26Z</time>
      </trkpt>
      <trkpt lat="43.77488" lon="5.43895">
        <ele>312.84</ele>
        <time>2014-10-29T07:56:41Z</time>
      </trkpt>
      <trkpt lat="43.77482" lon="5.43887">
        <ele>313.9</ele>
        <time>2014-10-29T07:56:56Z</time>
      </trkpt>
      <trkpt lat="43.77484" lon="5.43875">
        <ele>315.47</ele>
        <time>2014-10-29T07:57:15Z</time>
      </trkpt>
      <trkpt lat="43.77487" lon="5.43872">
        <ele>315.69</ele>
        <time>2014-10-29T07:57:18Z</time>
      </trkpt>
      <trkpt lat="43.77498" lon="5.43868">
        <ele>317.12</ele>
        <time>2014-10-29T07:57:32Z</time>
      </trkpt>
      <trkpt lat="43.77513" lon="5.43866">
        <ele>319.2</ele>
        <time>2014-10-29T07:57:50Z</time>
      </trkpt>
      <trkpt lat="43.77528" lon="5.43859">
        <ele>321.71</ele>
        <time>2014-10-29T07:58:11Z</time>
      </trkpt>
      <trkpt lat="43.77543" lon="5.43856">
        <ele>324.86</ele>
        <time>2014-10-29T07:58:30Z</time>
      </trkpt>
      <trkpt lat="43.7755" lon="5.43868">
        <ele>328.01</ele>
        <time>2014-10-29T07:58:49Z</time>
      </trkpt>
      <trkpt lat="43.7756" lon="5.43881">
        <ele>331.15</ele>
        <time>2014-10-29T07:59:07Z</time>
      </trkpt>
      <trkpt lat="43.77568" lon="5.43872">
        <ele>334.19</ele>
        <time>2014-10-29T07:59:27Z</time>
      </trkpt>
      <trkpt lat="43.77579" lon="5.43869">
        <ele>336.22</ele>
        <time>2014-10-29T07:59:41Z</time>
      </trkpt>
      <trkpt lat="43.77592" lon="5.43874">
        <ele>337.5</ele>
        <time>2014-10-29T07:59:54Z</time>
      </trkpt>
      <trkpt lat="43.77595" lon="5.43876">
        <ele>337.81</ele>
        <time>2014-10-29T07:59:57Z</time>
      </trkpt>
      <trkpt lat="43.77624" lon="5.43883">
        <ele>339.06</ele>
        <time>2014-10-29T08:00:21Z</time>
      </trkpt>
      <trkpt lat="43.77642" lon="5.43888">
        <ele>339.58</ele>
        <time>2014-10-29T08:00:36Z</time>
      </trkpt>
      <trkpt lat="43.77664" lon="5.43894">
        <ele>339.96</ele>
        <time>2014-10-29T08:00:53Z</time>
      </trkpt>
      <trkpt lat="43.77684" lon="5.43897">
        <ele>340.07</ele>
        <time>2014-10-29T08:01:11Z</time>
      </trkpt>
      <trkpt lat="43.77701" lon="5.439">
        <ele>340.42</ele>
        <time>2014-10-29T08:01:25Z</time>
      </trkpt>
      <trkpt lat="43.77721" lon="5.43905">
        <ele>340.85</ele>
        <time>2014-10-29T08:01:43Z</time>
      </trkpt>
      <trkpt lat="43.77743" lon="5.43904">
        <ele>341.13</ele>
        <time>2014-10-29T08:02:02Z</time>
      </trkpt>
      <trkpt lat="43.77767" lon="5.43904">
        <ele>341.58</ele>
        <time>2014-10-29T08:02:23Z</time>
      </trkpt>
      <trkpt lat="43.77785" lon="5.43905">
        <ele>341.48</ele>
        <time>2014-10-29T08:02:38Z</time>
      </trkpt>
      <trkpt lat="43.7781" lon="5.43904">
        <ele>341.86</ele>
        <time>2014-10-29T08:02:58Z</time>
      </trkpt>
      <trkpt lat="43.77831" lon="5.43888">
        <ele>342.51</ele>
        <time>2014-10-29T08:03:20Z</time>
      </trkpt>
      <trkpt lat="43.77841" lon="5.43866">
        <ele>343.5</ele>
        <time>2014-10-29T08:03:39Z</time>
      </trkpt>
      <trkpt lat="43.77856" lon="5.43848">
        <ele>344.9</ele>
        <time>2014-10-29T08:03:58Z</time>
      </trkpt>
      <trkpt lat="43.77873" lon="5.43829">
        <ele>346.43</ele>
        <time>2014-10-29T08:04:20Z</time>
      </trkpt>
      <trkpt lat="43.77885" lon="5.43814">
        <ele>347.78</ele>
        <time>2014-10-29T08:04:37Z</time>
      </trkpt>
      <trkpt lat="43.77896" lon="5.43801">
        <ele>348.93</ele>
        <time>2014-10-29T08:04:52Z</time>
      </trkpt>
      <trkpt lat="43.77909" lon="5.43787">
        <ele>350.25</ele>
        <time>2014-10-29T08:05:08Z</time>
      </trkpt>
      <trkpt lat="43.77925" lon="5.43769">
        <ele>352.52</ele>
        <time>2014-10-29T08:05:31Z</time>
      </trkpt>
      <trkpt lat="43.77939" lon="5.43748">
        <ele>353.7</ele>
        <time>2014-10-29T08:05:51Z</time>
      </trkpt>
      <trkpt lat="43.77951" lon="5.43728">
        <ele>355.38</ele>
        <time>2014-10-29T08:06:12Z</time>
      </trkpt>
      <trkpt lat="43.77962" lon="5.43709">
        <ele>356.85</ele>
        <time>2014-10-29T08:06:30Z</time>
      </trkpt>
      <trkpt lat="43.7797" lon="5.43695">
        <ele>358.69</ele>
        <time>2014-10-29T08:06:46Z</time>
      </trkpt>
      <trkpt lat="43.77987" lon="5.43672">
        <ele>360.85</ele>
        <time>2014-10-29T08:07:08Z</time>
      </trkpt>
      <trkpt lat="43.77997" lon="5.4365">
        <ele>362.77</ele>
        <time>2014-10-29T08:07:29Z</time>
      </trkpt>
      <trkpt lat="43.78005" lon="5.43627">
        <ele>364.44</ele>
        <time>2014-10-29T08:07:47Z</time>
      </trkpt>
      <trkpt lat="43.78018" lon="5.43609">
        <ele>367.12</ele>
        <time>2014-10-29T08:08:06Z</time>
      </trkpt>
      <trkpt lat="43.78045" lon="5.43597">
        <ele>369.14</ele>
        <time>2014-10-29T08:08:28Z</time>
      </trkpt>
      <trkpt lat="43.78071" lon="5.4358">
        <ele>370.96</ele>
        <time>2014-10-29T08:08:54Z</time>
      </trkpt>
      <trkpt lat="43.78092" lon="5.43568">
        <ele>372.66</ele>
        <time>2014-10-29T08:09:16Z</time>
      </trkpt>
      <trkpt lat="43.78113" lon="5.4356">
        <ele>374.37</ele>
        <time>2014-10-29T08:09:37Z</time>
      </trkpt>
      <trkpt lat="43.78134" lon="5.43551">
        <ele>376.13</ele>
        <time>2014-10-29T08:09:59Z</time>
      </trkpt>
      <trkpt lat="43.78148" lon="5.43544">
        <ele>377.26</ele>
        <time>2014-10-29T08:10:17Z</time>
      </trkpt>
      <trkpt lat="43.78163" lon="5.43538">
        <ele>378.97</ele>
        <time>2014-10-29T08:10:33Z</time>
      </trkpt>
      <trkpt lat="43.78181" lon="5.4353">
        <ele>380.72</ele>
        <time>2014-10-29T08:10:53Z</time>
      </trkpt>
      <trkpt lat="43.78198" lon="5.43524">
        <ele>381.56</ele>
        <time>2014-10-29T08:11:11Z</time>
      </trkpt>
      <trkpt lat="43.78217" lon="5.43519">
        <ele>383.23</ele>
        <time>2014-10-29T08:11:31Z</time>
      </trkpt>
      <trkpt lat="43.78235" lon="5.43517">
        <ele>384.68</ele>
        <time>2014-10-29T08:11:51Z</time>
      </trkpt>
      <trkpt lat="43.78259" lon="5.43516">
        <ele>386.71</ele>
        <time>2014-10-29T08:12:15Z</time>
      </trkpt>
      <trkpt lat="43.78273" lon="5.43515">
        <ele>388.28</ele>
        <time>2014-10-29T08:12:36Z</time>
      </trkpt>
      <trkpt lat="43.78273" lon="5.43515">
        <ele>387.83</ele>
        <time>2014-10-29T08:12:55Z</time>
      </trkpt>
      <trkpt lat="43.78277" lon="5.43517">
        <ele>388.05</ele>
        <time>2014-10-29T08:13:25Z</time>
      </trkpt>
      <trkpt lat="43.78274" lon="5.43515">
        <ele>389.09</ele>
        <time>2014-10-29T08:13:43Z</time>
      </trkpt>
      <trkpt lat="43.78271" lon="5.43513">
        <ele>389.62</ele>
        <time>2014-10-29T08:14:17Z</time>
      </trkpt>
      <trkpt lat="43.78281" lon="5.43511">
        <ele>390.2</ele>
        <time>2014-10-29T08:14:39Z</time>
      </trkpt>
      <trkpt lat="43.78299" lon="5.43512">
        <ele>391.76</ele>
        <time>2014-10-29T08:14:58Z</time>
      </trkpt>
      <trkpt lat="43.78315" lon="5.43514">
        <ele>393.45</ele>
        <time>2014-10-29T08:15:17Z</time>
      </trkpt>
      <trkpt lat="43.78337" lon="5.43517">
        <ele>395.52</ele>
        <time>2014-10-29T08:15:40Z</time>
      </trkpt>
      <trkpt lat="43.78355" lon="5.4352">
        <ele>397.4</ele>
        <time>2014-10-29T08:15:59Z</time>
      </trkpt>
      <trkpt lat="43.78367" lon="5.43523">
        <ele>398.67</ele>
        <time>2014-10-29T08:16:16Z</time>
      </trkpt>
      <trkpt lat="43.78386" lon="5.43532">
        <ele>400.32</ele>
        <time>2014-10-29T08:16:36Z</time>
      </trkpt>
      <trkpt lat="43.78404" lon="5.43541">
        <ele>402.26</ele>
        <time>2014-10-29T08:16:57Z</time>
      </trkpt>
      <trkpt lat="43.78418" lon="5.43546">
        <ele>404.58</ele>
        <time>2014-10-29T08:17:15Z</time>
      </trkpt>
      <trkpt lat="43.78431" lon="5.43552">
        <ele>407.11</ele>
        <time>2014-10-29T08:17:34Z</time>
      </trkpt>
      <trkpt lat="43.78451" lon="5.43562">
        <ele>410.13</ele>
        <time>2014-10-29T08:17:58Z</time>
      </trkpt>
      <trkpt lat="43.78464" lon="5.43566">
        <ele>411.51</ele>
        <time>2014-10-29T08:18:16Z</time>
      </trkpt>
      <trkpt lat="43.7848" lon="5.43578">
        <ele>414.32</ele>
        <time>2014-10-29T08:18:39Z</time>
      </trkpt>
      <trkpt lat="43.78492" lon="5.4359">
        <ele>417.39</ele>
        <time>2014-10-29T08:18:58Z</time>
      </trkpt>
      <trkpt lat="43.78501" lon="5.43594">
        <ele>419.47</ele>
        <time>2014-10-29T08:19:13Z</time>
      </trkpt>
      <trkpt lat="43.78506" lon="5.43594">
        <ele>422.56</ele>
        <time>2014-10-29T08:19:32Z</time>
      </trkpt>
      <trkpt lat="43.78513" lon="5.43583">
        <ele>425.57</ele>
        <time>2014-10-29T08:19:52Z</time>
      </trkpt>
      <trkpt lat="43.78517" lon="5.43565">
        <ele>428.54</ele>
        <time>2014-10-29T08:20:13Z</time>
      </trkpt>
      <trkpt lat="43.78521" lon="5.43548">
        <ele>431.57</ele>
        <time>2014-10-29T08:20:33Z</time>
      </trkpt>
      <trkpt lat="43.78526" lon="5.43532">
        <ele>434.57</ele>
        <time>2014-10-29T08:20:56Z</time>
      </trkpt>
      <trkpt lat="43.78531" lon="5.43537">
        <ele>436.68</ele>
        <time>2014-10-29T08:21:14Z</time>
      </trkpt>
      <trkpt lat="43.7854" lon="5.43548">
        <ele>439.44</ele>
        <time>2014-10-29T08:21:33Z</time>
      </trkpt>
      <trkpt lat="43.78548" lon="5.43555">
        <ele>442.53</ele>
        <time>2014-10-29T08:21:52Z</time>
      </trkpt>
      <trkpt lat="43.78559" lon="5.43565">
        <ele>445.41</ele>
        <time>2014-10-29T08:22:11Z</time>
      </trkpt>
      <trkpt lat="43.7857" lon="5.43574">
        <ele>448.36</ele>
        <time>2014-10-29T08:22:34Z</time>
      </trkpt>
      <trkpt lat="43.7858" lon="5.4358">
        <ele>450.82</ele>
        <time>2014-10-29T08:22:52Z</time>
      </trkpt>
      <trkpt lat="43.78591" lon="5.43588">
        <ele>453.12</ele>
        <time>2014-10-29T08:23:12Z</time>
      </trkpt>
      <trkpt lat="43.78604" lon="5.43595">
        <ele>455.72</ele>
        <time>2014-10-29T08:23:33Z</time>
      </trkpt>
      <trkpt lat="43.78616" lon="5.43601">
        <ele>458.59</ele>
        <time>2014-10-29T08:23:55Z</time>
      </trkpt>
      <trkpt lat="43.78628" lon="5.43608">
        <ele>461.61</ele>
        <time>2014-10-29T08:24:16Z</time>
      </trkpt>
      <trkpt lat="43.7864" lon="5.43616">
        <ele>464.64</ele>
        <time>2014-10-29T08:24:37Z</time>
      </trkpt>
      <trkpt lat="43.78641" lon="5.43609">
        <ele>467.71</ele>
        <time>2014-10-29T08:24:57Z</time>
      </trkpt>
      <trkpt lat="43.78631" lon="5.43597">
        <ele>469.86</ele>
        <time>2014-10-29T08:25:18Z</time>
      </trkpt>
      <trkpt lat="43.78621" lon="5.43578">
        <ele>472.12</ele>
        <time>2014-10-29T08:25:41Z</time>
      </trkpt>
      <trkpt lat="43.78614" lon="5.43561">
        <ele>473.74</ele>
        <time>2014-10-29T08:26:03Z</time>
      </trkpt>
      <trkpt lat="43.78613" lon="5.43558">
        <ele>473.3</ele>
        <time>2014-10-29T08:26:23Z</time>
      </trkpt>
      <trkpt lat="43.78612" lon="5.43557">
        <ele>473.24</ele>
        <time>2014-10-29T08:26:56Z</time>
      </trkpt>
      <trkpt lat="43.78612" lon="5.43556">
        <ele>473.41</ele>
        <time>2014-10-29T08:27:54Z</time>
      </trkpt>
      <trkpt lat="43.78612" lon="5.43555">
        <ele>473.44</ele>
        <time>2014-10-29T08:29:02Z</time>
      </trkpt>
      <trkpt lat="43.78612" lon="5.43555">
        <ele>473.73</ele>
        <time>2014-10-29T08:29:45Z</time>
      </trkpt>
      <trkpt lat="43.78612" lon="5.43556">
        <ele>474.04</ele>
        <time>2014-10-29T08:30:33Z</time>
      </trkpt>
      <trkpt lat="43.78613" lon="5.43556">
        <ele>474.92</ele>
        <time>2014-10-29T08:30:54Z</time>
      </trkpt>
      <trkpt lat="43.78613" lon="5.43555">
        <ele>475.03</ele>
        <time>2014-10-29T08:31:14Z</time>
      </trkpt>
      <trkpt lat="43.78624" lon="5.43551">
        <ele>475.59</ele>
        <time>2014-10-29T08:31:31Z</time>
      </trkpt>
      <trkpt lat="43.78635" lon="5.43557">
        <ele>477.66</ele>
        <time>2014-10-29T08:31:49Z</time>
      </trkpt>
      <trkpt lat="43.78646" lon="5.43561">
        <ele>480</ele>
        <time>2014-10-29T08:32:08Z</time>
      </trkpt>
      <trkpt lat="43.78658" lon="5.43567">
        <ele>482.22</ele>
        <time>2014-10-29T08:32:27Z</time>
      </trkpt>
      <trkpt lat="43.7867" lon="5.43573">
        <ele>483.7</ele>
        <time>2014-10-29T08:32:46Z</time>
      </trkpt>
      <trkpt lat="43.78676" lon="5.43577">
        <ele>485</ele>
        <time>2014-10-29T08:33:02Z</time>
      </trkpt>
      <trkpt lat="43.78677" lon="5.43578">
        <ele>485.31</ele>
        <time>2014-10-29T08:33:20Z</time>
      </trkpt>
      <trkpt lat="43.7868" lon="5.43582">
        <ele>485.45</ele>
        <time>2014-10-29T08:33:39Z</time>
      </trkpt>
      <trkpt lat="43.78685" lon="5.43588">
        <ele>485.96</ele>
        <time>2014-10-29T08:33:54Z</time>
      </trkpt>
      <trkpt lat="43.78692" lon="5.43598">
        <ele>486.27</ele>
        <time>2014-10-29T08:34:16Z</time>
      </trkpt>
      <trkpt lat="43.78696" lon="5.43598">
        <ele>486.53</ele>
        <time>2014-10-29T08:34:33Z</time>
      </trkpt>
      <trkpt lat="43.78704" lon="5.43598">
        <ele>488.2</ele>
        <time>2014-10-29T08:34:51Z</time>
      </trkpt>
      <trkpt lat="43.78711" lon="5.43592">
        <ele>490.49</ele>
        <time>2014-10-29T08:35:09Z</time>
      </trkpt>
      <trkpt lat="43.7871" lon="5.4359">
        <ele>490.56</ele>
        <time>2014-10-29T08:35:35Z</time>
      </trkpt>
      <trkpt lat="43.78711" lon="5.43591">
        <ele>490.54</ele>
        <time>2014-10-29T08:35:52Z</time>
      </trkpt>
      <trkpt lat="43.78711" lon="5.4359">
        <ele>490.59</ele>
        <time>2014-10-29T08:36:19Z</time>
      </trkpt>
      <trkpt lat="43.78711" lon="5.43591">
        <ele>490.83</ele>
        <time>2014-10-29T08:36:42Z</time>
      </trkpt>
      <trkpt lat="43.7871" lon="5.43592">
        <ele>489.68</ele>
        <time>2014-10-29T08:37:03Z</time>
      </trkpt>
      <trkpt lat="43.78713" lon="5.43594">
        <ele>490</ele>
        <time>2014-10-29T08:37:32Z</time>
      </trkpt>
      <trkpt lat="43.78714" lon="5.43592">
        <ele>489.93</ele>
        <time>2014-10-29T08:38:08Z</time>
      </trkpt>
      <trkpt lat="43.78712" lon="5.43591">
        <ele>489.77</ele>
        <time>2014-10-29T08:38:49Z</time>
      </trkpt>
      <trkpt lat="43.78713" lon="5.43591">
        <ele>489.83</ele>
        <time>2014-10-29T08:39:21Z</time>
      </trkpt>
      <trkpt lat="43.78713" lon="5.43591">
        <ele>489.82</ele>
        <time>2014-10-29T08:40:15Z</time>
      </trkpt>
      <trkpt lat="43.78714" lon="5.4359">
        <ele>489.6</ele>
        <time>2014-10-29T08:41:02Z</time>
      </trkpt>
      <trkpt lat="43.78712" lon="5.4359">
        <ele>490.71</ele>
        <time>2014-10-29T08:41:26Z</time>
      </trkpt>
      <trkpt lat="43.78714" lon="5.43592">
        <ele>491.27</ele>
        <time>2014-10-29T08:41:55Z</time>
      </trkpt>
      <trkpt lat="43.78723" lon="5.43595">
        <ele>492.38</ele>
        <time>2014-10-29T08:42:15Z</time>
      </trkpt>
      <trkpt lat="43.78731" lon="5.43603">
        <ele>493.57</ele>
        <time>2014-10-29T08:42:33Z</time>
      </trkpt>
      <trkpt lat="43.78743" lon="5.43608">
        <ele>495.47</ele>
        <time>2014-10-29T08:42:54Z</time>
      </trkpt>
      <trkpt lat="43.78758" lon="5.43612">
        <ele>497.23</ele>
        <time>2014-10-29T08:43:16Z</time>
      </trkpt>
      <trkpt lat="43.78775" lon="5.43619">
        <ele>500.01</ele>
        <time>2014-10-29T08:43:44Z</time>
      </trkpt>
      <trkpt lat="43.78791" lon="5.43619">
        <ele>501.96</ele>
        <time>2014-10-29T08:44:04Z</time>
      </trkpt>
      <trkpt lat="43.78803" lon="5.43619">
        <ele>503.84</ele>
        <time>2014-10-29T08:44:22Z</time>
      </trkpt>
      <trkpt lat="43.7882" lon="5.43621">
        <ele>506.41</ele>
        <time>2014-10-29T08:44:44Z</time>
      </trkpt>
      <trkpt lat="43.78836" lon="5.43624">
        <ele>508.83</ele>
        <time>2014-10-29T08:45:04Z</time>
      </trkpt>
      <trkpt lat="43.78853" lon="5.43627">
        <ele>511.04</ele>
        <time>2014-10-29T08:45:26Z</time>
      </trkpt>
      <trkpt lat="43.78871" lon="5.4363">
        <ele>513.17</ele>
        <time>2014-10-29T08:45:49Z</time>
      </trkpt>
      <trkpt lat="43.78884" lon="5.43636">
        <ele>515.29</ele>
        <time>2014-10-29T08:46:11Z</time>
      </trkpt>
      <trkpt lat="43.78897" lon="5.43646">
        <ele>516.63</ele>
        <time>2014-10-29T08:46:33Z</time>
      </trkpt>
      <trkpt lat="43.78909" lon="5.43659">
        <ele>518.2</ele>
        <time>2014-10-29T08:46:53Z</time>
      </trkpt>
      <trkpt lat="43.78927" lon="5.43679">
        <ele>519.26</ele>
        <time>2014-10-29T08:47:15Z</time>
      </trkpt>
      <trkpt lat="43.78947" lon="5.43698">
        <ele>521.31</ele>
        <time>2014-10-29T08:47:41Z</time>
      </trkpt>
      <trkpt lat="43.78966" lon="5.43719">
        <ele>522.97</ele>
        <time>2014-10-29T08:48:05Z</time>
      </trkpt>
      <trkpt lat="43.78981" lon="5.43734">
        <ele>524.72</ele>
        <time>2014-10-29T08:48:25Z</time>
      </trkpt>
      <trkpt lat="43.78995" lon="5.43744">
        <ele>526.79</ele>
        <time>2014-10-29T08:48:44Z</time>
      </trkpt>
      <trkpt lat="43.7901" lon="5.43757">
        <ele>528.73</ele>
        <time>2014-10-29T08:49:06Z</time>
      </trkpt>
      <trkpt lat="43.79026" lon="5.43771">
        <ele>530.89</ele>
        <time>2014-10-29T08:49:26Z</time>
      </trkpt>
      <trkpt lat="43.79041" lon="5.43781">
        <ele>532.47</ele>
        <time>2014-10-29T08:49:44Z</time>
      </trkpt>
      <trkpt lat="43.79058" lon="5.4379">
        <ele>534.13</ele>
        <time>2014-10-29T08:50:04Z</time>
      </trkpt>
      <trkpt lat="43.79076" lon="5.43802">
        <ele>535.56</ele>
        <time>2014-10-29T08:50:28Z</time>
      </trkpt>
      <trkpt lat="43.79095" lon="5.43812">
        <ele>536.89</ele>
        <time>2014-10-29T08:50:50Z</time>
      </trkpt>
      <trkpt lat="43.79113" lon="5.43823">
        <ele>538.49</ele>
        <time>2014-10-29T08:51:11Z</time>
      </trkpt>
      <trkpt lat="43.79132" lon="5.43835">
        <ele>539.86</ele>
        <time>2014-10-29T08:51:34Z</time>
      </trkpt>
      <trkpt lat="43.79149" lon="5.43846">
        <ele>541.14</ele>
        <time>2014-10-29T08:51:54Z</time>
      </trkpt>
      <trkpt lat="43.79163" lon="5.43854">
        <ele>542.38</ele>
        <time>2014-10-29T08:52:11Z</time>
      </trkpt>
      <trkpt lat="43.79178" lon="5.43864">
        <ele>543.83</ele>
        <time>2014-10-29T08:52:30Z</time>
      </trkpt>
      <trkpt lat="43.79195" lon="5.43874">
        <ele>545.11</ele>
        <time>2014-10-29T08:52:49Z</time>
      </trkpt>
      <trkpt lat="43.79208" lon="5.43884">
        <ele>546.15</ele>
        <time>2014-10-29T08:53:06Z</time>
      </trkpt>
      <trkpt lat="43.79221" lon="5.43895">
        <ele>547.01</ele>
        <time>2014-10-29T08:53:28Z</time>
      </trkpt>
      <trkpt lat="43.79244" lon="5.43916">
        <ele>549.25</ele>
        <time>2014-10-29T08:53:53Z</time>
      </trkpt>
      <trkpt lat="43.79257" lon="5.43926">
        <ele>551.22</ele>
        <time>2014-10-29T08:54:11Z</time>
      </trkpt>
      <trkpt lat="43.79277" lon="5.43944">
        <ele>553.72</ele>
        <time>2014-10-29T08:54:36Z</time>
      </trkpt>
      <trkpt lat="43.79293" lon="5.43958">
        <ele>556.7</ele>
        <time>2014-10-29T08:54:59Z</time>
      </trkpt>
      <trkpt lat="43.7931" lon="5.43976">
        <ele>558.83</ele>
        <time>2014-10-29T08:55:22Z</time>
      </trkpt>
      <trkpt lat="43.7932" lon="5.43996">
        <ele>559.67</ele>
        <time>2014-10-29T08:55:45Z</time>
      </trkpt>
      <trkpt lat="43.79328" lon="5.44021">
        <ele>559.63</ele>
        <time>2014-10-29T08:56:09Z</time>
      </trkpt>
      <trkpt lat="43.79334" lon="5.44056">
        <ele>559.45</ele>
        <time>2014-10-29T08:56:38Z</time>
      </trkpt>
      <trkpt lat="43.79336" lon="5.44084">
        <ele>558.6</ele>
        <time>2014-10-29T08:57:00Z</time>
      </trkpt>
      <trkpt lat="43.79337" lon="5.44115">
        <ele>556.99</ele>
        <time>2014-10-29T08:57:24Z</time>
      </trkpt>
      <trkpt lat="43.7934" lon="5.44143">
        <ele>554.8</ele>
        <time>2014-10-29T08:57:48Z</time>
      </trkpt>
      <trkpt lat="43.79345" lon="5.44173">
        <ele>552.63</ele>
        <time>2014-10-29T08:58:12Z</time>
      </trkpt>
      <trkpt lat="43.79353" lon="5.44204">
        <ele>550.31</ele>
        <time>2014-10-29T08:58:36Z</time>
      </trkpt>
      <trkpt lat="43.79355" lon="5.4423">
        <ele>548.15</ele>
        <time>2014-10-29T08:58:58Z</time>
      </trkpt>
      <trkpt lat="43.79365" lon="5.44254">
        <ele>545.97</ele>
        <time>2014-10-29T08:59:20Z</time>
      </trkpt>
      <trkpt lat="43.79376" lon="5.44274">
        <ele>545.42</ele>
        <time>2014-10-29T08:59:40Z</time>
      </trkpt>
      <trkpt lat="43.79387" lon="5.44288">
        <ele>544.01</ele>
        <time>2014-10-29T08:59:53Z</time>
      </trkpt>
      <trkpt lat="43.79402" lon="5.44312">
        <ele>542</ele>
        <time>2014-10-29T09:00:17Z</time>
      </trkpt>
      <trkpt lat="43.794" lon="5.44336">
        <ele>539.7</ele>
        <time>2014-10-29T09:00:39Z</time>
      </trkpt>
      <trkpt lat="43.794" lon="5.44361">
        <ele>537.9</ele>
        <time>2014-10-29T09:00:59Z</time>
      </trkpt>
      <trkpt lat="43.79397" lon="5.4439">
        <ele>535.46</ele>
        <time>2014-10-29T09:01:21Z</time>
      </trkpt>
      <trkpt lat="43.79416" lon="5.4441">
        <ele>533.57</ele>
        <time>2014-10-29T09:01:40Z</time>
      </trkpt>
      <trkpt lat="43.79418" lon="5.44411">
        <ele>533.41</ele>
        <time>2014-10-29T09:01:42Z</time>
      </trkpt>
      <trkpt lat="43.79438" lon="5.44413">
        <ele>532.62</ele>
        <time>2014-10-29T09:01:58Z</time>
      </trkpt>
      <trkpt lat="43.79461" lon="5.44412">
        <ele>532.09</ele>
        <time>2014-10-29T09:02:19Z</time>
      </trkpt>
      <trkpt lat="43.79477" lon="5.44403">
        <ele>532.88</ele>
        <time>2014-10-29T09:02:38Z</time>
      </trkpt>
      <trkpt lat="43.79482" lon="5.44402">
        <ele>533.79</ele>
        <time>2014-10-29T09:02:55Z</time>
      </trkpt>
      <trkpt lat="43.79483" lon="5.44402">
        <ele>533.62</ele>
        <time>2014-10-29T09:03:20Z</time>
      </trkpt>
      <trkpt lat="43.79484" lon="5.44402">
        <ele>533.22</ele>
        <time>2014-10-29T09:04:01Z</time>
      </trkpt>
      <trkpt lat="43.79482" lon="5.44401">
        <ele>533.33</ele>
        <time>2014-10-29T09:04:37Z</time>
      </trkpt>
      <trkpt lat="43.79482" lon="5.44401">
        <ele>533.03</ele>
        <time>2014-10-29T09:05:11Z</time>
      </trkpt>
      <trkpt lat="43.79481" lon="5.44401">
        <ele>532.94</ele>
        <time>2014-10-29T09:05:48Z</time>
      </trkpt>
      <trkpt lat="43.79481" lon="5.44401">
        <ele>533.01</ele>
        <time>2014-10-29T09:06:13Z</time>
      </trkpt>
      <trkpt lat="43.79481" lon="5.44398">
        <ele>532.5</ele>
        <time>2014-10-29T09:06:37Z</time>
      </trkpt>
      <trkpt lat="43.79479" lon="5.44399">
        <ele>532.89</ele>
        <time>2014-10-29T09:06:57Z</time>
      </trkpt>
      <trkpt lat="43.79479" lon="5.44401">
        <ele>532.64</ele>
        <time>2014-10-29T09:07:28Z</time>
      </trkpt>
      <trkpt lat="43.7948" lon="5.44402">
        <ele>532.86</ele>
        <time>2014-10-29T09:08:05Z</time>
      </trkpt>
      <trkpt lat="43.79481" lon="5.44401">
        <ele>532.39</ele>
        <time>2014-10-29T09:08:39Z</time>
      </trkpt>
      <trkpt lat="43.79478" lon="5.444">
        <ele>532.45</ele>
        <time>2014-10-29T09:09:15Z</time>
      </trkpt>
      <trkpt lat="43.79479" lon="5.44402">
        <ele>532.74</ele>
        <time>2014-10-29T09:09:45Z</time>
      </trkpt>
      <trkpt lat="43.79483" lon="5.44405">
        <ele>532.61</ele>
        <time>2014-10-29T09:10:14Z</time>
      </trkpt>
      <trkpt lat="43.79491" lon="5.44415">
        <ele>532.5</ele>
        <time>2014-10-29T09:10:32Z</time>
      </trkpt>
      <trkpt lat="43.79491" lon="5.44418">
        <ele>532.39</ele>
        <time>2014-10-29T09:10:34Z</time>
      </trkpt>
      <trkpt lat="43.79498" lon="5.44428">
        <ele>531.7</ele>
        <time>2014-10-29T09:10:48Z</time>
      </trkpt>
      <trkpt lat="43.79511" lon="5.44434">
        <ele>532.65</ele>
        <time>2014-10-29T09:11:03Z</time>
      </trkpt>
      <trkpt lat="43.79523" lon="5.44437">
        <ele>534</ele>
        <time>2014-10-29T09:11:19Z</time>
      </trkpt>
      <trkpt lat="43.79536" lon="5.44441">
        <ele>535.65</ele>
        <time>2014-10-29T09:11:36Z</time>
      </trkpt>
      <trkpt lat="43.79552" lon="5.4444">
        <ele>537.38</ele>
        <time>2014-10-29T09:11:54Z</time>
      </trkpt>
      <trkpt lat="43.7957" lon="5.44444">
        <ele>537.9</ele>
        <time>2014-10-29T09:12:11Z</time>
      </trkpt>
      <trkpt lat="43.79588" lon="5.44445">
        <ele>536.86</ele>
        <time>2014-10-29T09:12:29Z</time>
      </trkpt>
      <trkpt lat="43.796" lon="5.44445">
        <ele>536.82</ele>
        <time>2014-10-29T09:12:45Z</time>
      </trkpt>
      <trkpt lat="43.79616" lon="5.44447">
        <ele>536.86</ele>
        <time>2014-10-29T09:13:02Z</time>
      </trkpt>
      <trkpt lat="43.79634" lon="5.4445">
        <ele>537.52</ele>
        <time>2014-10-29T09:13:20Z</time>
      </trkpt>
      <trkpt lat="43.79649" lon="5.44451">
        <ele>538.03</ele>
        <time>2014-10-29T09:13:37Z</time>
      </trkpt>
      <trkpt lat="43.79664" lon="5.44453">
        <ele>538.92</ele>
        <time>2014-10-29T09:13:52Z</time>
      </trkpt>
      <trkpt lat="43.79685" lon="5.44458">
        <ele>539.98</ele>
        <time>2014-10-29T09:14:14Z</time>
      </trkpt>
      <trkpt lat="43.79694" lon="5.4447">
        <ele>539.8</ele>
        <time>2014-10-29T09:14:33Z</time>
      </trkpt>
      <trkpt lat="43.79708" lon="5.44474">
        <ele>541.25</ele>
        <time>2014-10-29T09:14:48Z</time>
      </trkpt>
      <trkpt lat="43.79727" lon="5.44488">
        <ele>543.78</ele>
        <time>2014-10-29T09:15:10Z</time>
      </trkpt>
      <trkpt lat="43.79745" lon="5.445">
        <ele>546.38</ele>
        <time>2014-10-29T09:15:33Z</time>
      </trkpt>
      <trkpt lat="43.79757" lon="5.44512">
        <ele>548.98</ele>
        <time>2014-10-29T09:15:54Z</time>
      </trkpt>
      <trkpt lat="43.79768" lon="5.44524">
        <ele>551.88</ele>
        <time>2014-10-29T09:16:15Z</time>
      </trkpt>
      <trkpt lat="43.79777" lon="5.44539">
        <ele>554.22</ele>
        <time>2014-10-29T09:16:37Z</time>
      </trkpt>
      <trkpt lat="43.79786" lon="5.44561">
        <ele>556.79</ele>
        <time>2014-10-29T09:17:00Z</time>
      </trkpt>
      <trkpt lat="43.79792" lon="5.44584">
        <ele>559.08</ele>
        <time>2014-10-29T09:17:23Z</time>
      </trkpt>
      <trkpt lat="43.79799" lon="5.44606">
        <ele>561.05</ele>
        <time>2014-10-29T09:17:44Z</time>
      </trkpt>
      <trkpt lat="43.79812" lon="5.44629">
        <ele>563.83</ele>
        <time>2014-10-29T09:18:06Z</time>
      </trkpt>
      <trkpt lat="43.79825" lon="5.44647">
        <ele>565.79</ele>
        <time>2014-10-29T09:18:25Z</time>
      </trkpt>
      <trkpt lat="43.7984" lon="5.4467">
        <ele>568.39</ele>
        <time>2014-10-29T09:18:49Z</time>
      </trkpt>
      <trkpt lat="43.79852" lon="5.44683">
        <ele>570.27</ele>
        <time>2014-10-29T09:19:06Z</time>
      </trkpt>
      <trkpt lat="43.7987" lon="5.447">
        <ele>572.88</ele>
        <time>2014-10-29T09:19:28Z</time>
      </trkpt>
      <trkpt lat="43.79878" lon="5.44718">
        <ele>573.97</ele>
        <time>2014-10-29T09:19:45Z</time>
      </trkpt>
      <trkpt lat="43.7988" lon="5.44733">
        <ele>574.3</ele>
        <time>2014-10-29T09:19:57Z</time>
      </trkpt>
      <trkpt lat="43.79883" lon="5.44754">
        <ele>574.32</ele>
        <time>2014-10-29T09:20:13Z</time>
      </trkpt>
      <trkpt lat="43.79883" lon="5.44755">
        <ele>574.31</ele>
        <time>2014-10-29T09:20:14Z</time>
      </trkpt>
      <trkpt lat="43.79882" lon="5.44774">
        <ele>574.79</ele>
        <time>2014-10-29T09:20:28Z</time>
      </trkpt>
      <trkpt lat="43.79897" lon="5.44789">
        <ele>576.06</ele>
        <time>2014-10-29T09:20:49Z</time>
      </trkpt>
      <trkpt lat="43.79899" lon="5.44789">
        <ele>576.6</ele>
        <time>2014-10-29T09:21:08Z</time>
      </trkpt>
      <trkpt lat="43.79905" lon="5.44792">
        <ele>576.91</ele>
        <time>2014-10-29T09:21:30Z</time>
      </trkpt>
      <trkpt lat="43.79925" lon="5.44798">
        <ele>578.2</ele>
        <time>2014-10-29T09:21:58Z</time>
      </trkpt>
      <trkpt lat="43.79936" lon="5.44813">
        <ele>579.77</ele>
        <time>2014-10-29T09:22:20Z</time>
      </trkpt>
      <trkpt lat="43.79945" lon="5.44823">
        <ele>580.82</ele>
        <time>2014-10-29T09:22:34Z</time>
      </trkpt>
      <trkpt lat="43.79968" lon="5.44825">
        <ele>581.16</ele>
        <time>2014-10-29T09:22:56Z</time>
      </trkpt>
      <trkpt lat="43.79984" lon="5.44823">
        <ele>580.76</ele>
        <time>2014-10-29T09:23:12Z</time>
      </trkpt>
      <trkpt lat="43.79999" lon="5.44811">
        <ele>581.22</ele>
        <time>2014-10-29T09:23:29Z</time>
      </trkpt>
      <trkpt lat="43.8001" lon="5.44801">
        <ele>581.99</ele>
        <time>2014-10-29T09:23:44Z</time>
      </trkpt>
      <trkpt lat="43.80025" lon="5.44786">
        <ele>582.65</ele>
        <time>2014-10-29T09:24:03Z</time>
      </trkpt>
      <trkpt lat="43.80037" lon="5.44774">
        <ele>582.77</ele>
        <time>2014-10-29T09:24:17Z</time>
      </trkpt>
      <trkpt lat="43.80058" lon="5.44759">
        <ele>582.94</ele>
        <time>2014-10-29T09:24:36Z</time>
      </trkpt>
      <trkpt lat="43.80082" lon="5.44756">
        <ele>584.28</ele>
        <time>2014-10-29T09:25:00Z</time>
      </trkpt>
      <trkpt lat="43.80099" lon="5.44751">
        <ele>585.6</ele>
        <time>2014-10-29T09:25:20Z</time>
      </trkpt>
      <trkpt lat="43.80114" lon="5.44747">
        <ele>586.82</ele>
        <time>2014-10-29T09:25:37Z</time>
      </trkpt>
      <trkpt lat="43.80129" lon="5.44745">
        <ele>588.57</ele>
        <time>2014-10-29T09:25:54Z</time>
      </trkpt>
      <trkpt lat="43.80141" lon="5.44744">
        <ele>590.03</ele>
        <time>2014-10-29T09:26:08Z</time>
      </trkpt>
      <trkpt lat="43.80155" lon="5.44742">
        <ele>592.17</ele>
        <time>2014-10-29T09:26:25Z</time>
      </trkpt>
      <trkpt lat="43.8017" lon="5.44729">
        <ele>594.9</ele>
        <time>2014-10-29T09:26:48Z</time>
      </trkpt>
      <trkpt lat="43.80179" lon="5.44709">
        <ele>597.17</ele>
        <time>2014-10-29T09:27:07Z</time>
      </trkpt>
      <trkpt lat="43.80186" lon="5.447">
        <ele>599.35</ele>
        <time>2014-10-29T09:27:28Z</time>
      </trkpt>
      <trkpt lat="43.80193" lon="5.44691">
        <ele>600.61</ele>
        <time>2014-10-29T09:27:49Z</time>
      </trkpt>
      <trkpt lat="43.80202" lon="5.44674">
        <ele>603.53</ele>
        <time>2014-10-29T09:28:11Z</time>
      </trkpt>
      <trkpt lat="43.80213" lon="5.4466">
        <ele>605.96</ele>
        <time>2014-10-29T09:28:27Z</time>
      </trkpt>
      <trkpt lat="43.80232" lon="5.44656">
        <ele>609.06</ele>
        <time>2014-10-29T09:28:51Z</time>
      </trkpt>
      <trkpt lat="43.80247" lon="5.44651">
        <ele>611.99</ele>
        <time>2014-10-29T09:29:11Z</time>
      </trkpt>
      <trkpt lat="43.80261" lon="5.44638">
        <ele>614.82</ele>
        <time>2014-10-29T09:29:31Z</time>
      </trkpt>
      <trkpt lat="43.80268" lon="5.44619">
        <ele>617.65</ele>
        <time>2014-10-29T09:29:53Z</time>
      </trkpt>
      <trkpt lat="43.80273" lon="5.44595">
        <ele>619.93</ele>
        <time>2014-10-29T09:30:16Z</time>
      </trkpt>
      <trkpt lat="43.80275" lon="5.44585">
        <ele>620.88</ele>
        <time>2014-10-29T09:30:42Z</time>
      </trkpt>
      <trkpt lat="43.80275" lon="5.44585">
        <ele>621.06</ele>
        <time>2014-10-29T09:31:01Z</time>
      </trkpt>
      <trkpt lat="43.80278" lon="5.44582">
        <ele>621.37</ele>
        <time>2014-10-29T09:31:24Z</time>
      </trkpt>
      <trkpt lat="43.80275" lon="5.44584">
        <ele>621.48</ele>
        <time>2014-10-29T09:31:50Z</time>
      </trkpt>
      <trkpt lat="43.80274" lon="5.44584">
        <ele>621.24</ele>
        <time>2014-10-29T09:32:18Z</time>
      </trkpt>
      <trkpt lat="43.80276" lon="5.44585">
        <ele>620.64</ele>
        <time>2014-10-29T09:32:43Z</time>
      </trkpt>
      <trkpt lat="43.80275" lon="5.44584">
        <ele>620</ele>
        <time>2014-10-29T09:33:42Z</time>
      </trkpt>
      <trkpt lat="43.80276" lon="5.44588">
        <ele>620.31</ele>
        <time>2014-10-29T09:35:30Z</time>
      </trkpt>
      <trkpt lat="43.80276" lon="5.44586">
        <ele>620.36</ele>
        <time>2014-10-29T09:36:37Z</time>
      </trkpt>
      <trkpt lat="43.80273" lon="5.44585">
        <ele>619.59</ele>
        <time>2014-10-29T09:38:02Z</time>
      </trkpt>
      <trkpt lat="43.80276" lon="5.44587">
        <ele>620.78</ele>
        <time>2014-10-29T09:38:48Z</time>
      </trkpt>
      <trkpt lat="43.80277" lon="5.44587">
        <ele>620.93</ele>
        <time>2014-10-29T09:39:17Z</time>
      </trkpt>
      <trkpt lat="43.80275" lon="5.44587">
        <ele>620.64</ele>
        <time>2014-10-29T09:39:43Z</time>
      </trkpt>
      <trkpt lat="43.80277" lon="5.44587">
        <ele>620.72</ele>
        <time>2014-10-29T09:40:16Z</time>
      </trkpt>
      <trkpt lat="43.80277" lon="5.44589">
        <ele>620.58</ele>
        <time>2014-10-29T09:40:43Z</time>
      </trkpt>
      <trkpt lat="43.80277" lon="5.44589">
        <ele>620.16</ele>
        <time>2014-10-29T09:41:11Z</time>
      </trkpt>
      <trkpt lat="43.80277" lon="5.44589">
        <ele>620.08</ele>
        <time>2014-10-29T09:41:19Z</time>
      </trkpt>
      <trkpt lat="43.80278" lon="5.44589">
        <ele>620.15</ele>
        <time>2014-10-29T09:41:49Z</time>
      </trkpt>
      <trkpt lat="43.80277" lon="5.44587">
        <ele>619.51</ele>
        <time>2014-10-29T09:42:17Z</time>
      </trkpt>
      <trkpt lat="43.8027" lon="5.44586">
        <ele>619.14</ele>
        <time>2014-10-29T09:42:50Z</time>
      </trkpt>
      <trkpt lat="43.80271" lon="5.44588">
        <ele>619.27</ele>
        <time>2014-10-29T09:43:14Z</time>
      </trkpt>
      <trkpt lat="43.80273" lon="5.44591">
        <ele>619.07</ele>
        <time>2014-10-29T09:43:40Z</time>
      </trkpt>
      <trkpt lat="43.80262" lon="5.44602">
        <ele>620.58</ele>
        <time>2014-10-29T09:44:00Z</time>
      </trkpt>
      <trkpt lat="43.80248" lon="5.44599">
        <ele>621.84</ele>
        <time>2014-10-29T09:44:15Z</time>
      </trkpt>
      <trkpt lat="43.80236" lon="5.44592">
        <ele>623.35</ele>
        <time>2014-10-29T09:44:29Z</time>
      </trkpt>
      <trkpt lat="43.80221" lon="5.4458">
        <ele>625.38</ele>
        <time>2014-10-29T09:44:49Z</time>
      </trkpt>
      <trkpt lat="43.80214" lon="5.44564">
        <ele>627.47</ele>
        <time>2014-10-29T09:45:06Z</time>
      </trkpt>
      <trkpt lat="43.8021" lon="5.44545">
        <ele>629.91</ele>
        <time>2014-10-29T09:45:25Z</time>
      </trkpt>
      <trkpt lat="43.80206" lon="5.44541">
        <ele>630.63</ele>
        <time>2014-10-29T09:45:31Z</time>
      </trkpt>
      <trkpt lat="43.80193" lon="5.44532">
        <ele>632.75</ele>
        <time>2014-10-29T09:45:48Z</time>
      </trkpt>
      <trkpt lat="43.80182" lon="5.44525">
        <ele>634.19</ele>
        <time>2014-10-29T09:46:01Z</time>
      </trkpt>
      <trkpt lat="43.80171" lon="5.44518">
        <ele>635.79</ele>
        <time>2014-10-29T09:46:15Z</time>
      </trkpt>
      <trkpt lat="43.80161" lon="5.44509">
        <ele>637.65</ele>
        <time>2014-10-29T09:46:29Z</time>
      </trkpt>
      <trkpt lat="43.80148" lon="5.445">
        <ele>640.01</ele>
        <time>2014-10-29T09:46:45Z</time>
      </trkpt>
      <trkpt lat="43.80146" lon="5.44499">
        <ele>640.41</ele>
        <time>2014-10-29T09:46:48Z</time>
      </trkpt>
      <trkpt lat="43.80144" lon="5.44497">
        <ele>640.65</ele>
        <time>2014-10-29T09:46:50Z</time>
      </trkpt>
      <trkpt lat="43.80132" lon="5.44489">
        <ele>642.84</ele>
        <time>2014-10-29T09:47:06Z</time>
      </trkpt>
      <trkpt lat="43.80113" lon="5.44479">
        <ele>644.84</ele>
        <time>2014-10-29T09:47:28Z</time>
      </trkpt>
      <trkpt lat="43.80099" lon="5.44473">
        <ele>647.13</ele>
        <time>2014-10-29T09:47:45Z</time>
      </trkpt>
      <trkpt lat="43.80088" lon="5.44465">
        <ele>649.09</ele>
        <time>2014-10-29T09:48:00Z</time>
      </trkpt>
      <trkpt lat="43.80075" lon="5.44457">
        <ele>651.17</ele>
        <time>2014-10-29T09:48:17Z</time>
      </trkpt>
      <trkpt lat="43.80065" lon="5.44451">
        <ele>653.17</ele>
        <time>2014-10-29T09:48:31Z</time>
      </trkpt>
      <trkpt lat="43.80048" lon="5.44444">
        <ele>656.18</ele>
        <time>2014-10-29T09:48:54Z</time>
      </trkpt>
      <trkpt lat="43.80028" lon="5.44444">
        <ele>658.5</ele>
        <time>2014-10-29T09:49:18Z</time>
      </trkpt>
      <trkpt lat="43.80015" lon="5.44439">
        <ele>660.06</ele>
        <time>2014-10-29T09:49:34Z</time>
      </trkpt>
      <trkpt lat="43.79999" lon="5.44431">
        <ele>661.84</ele>
        <time>2014-10-29T09:49:53Z</time>
      </trkpt>
      <trkpt lat="43.79993" lon="5.44415">
        <ele>664.09</ele>
        <time>2014-10-29T09:50:15Z</time>
      </trkpt>
      <trkpt lat="43.79993" lon="5.44414">
        <ele>664.09</ele>
        <time>2014-10-29T09:50:16Z</time>
      </trkpt>
      <trkpt lat="43.80001" lon="5.44396">
        <ele>664.57</ele>
        <time>2014-10-29T09:50:30Z</time>
      </trkpt>
      <trkpt lat="43.80007" lon="5.44374">
        <ele>665.04</ele>
        <time>2014-10-29T09:50:49Z</time>
      </trkpt>
      <trkpt lat="43.80013" lon="5.44352">
        <ele>665.89</ele>
        <time>2014-10-29T09:51:08Z</time>
      </trkpt>
      <trkpt lat="43.80019" lon="5.44328">
        <ele>666.94</ele>
        <time>2014-10-29T09:51:26Z</time>
      </trkpt>
      <trkpt lat="43.80032" lon="5.44304">
        <ele>668.6</ele>
        <time>2014-10-29T09:51:50Z</time>
      </trkpt>
      <trkpt lat="43.80034" lon="5.44302">
        <ele>668.73</ele>
        <time>2014-10-29T09:51:52Z</time>
      </trkpt>
      <trkpt lat="43.80039" lon="5.44293">
        <ele>669.31</ele>
        <time>2014-10-29T09:52:02Z</time>
      </trkpt>
      <trkpt lat="43.8005" lon="5.44286">
        <ele>670.31</ele>
        <time>2014-10-29T09:52:18Z</time>
      </trkpt>
      <trkpt lat="43.80069" lon="5.4427">
        <ele>672.39</ele>
        <time>2014-10-29T09:52:43Z</time>
      </trkpt>
      <trkpt lat="43.80081" lon="5.44266">
        <ele>674.03</ele>
        <time>2014-10-29T09:52:59Z</time>
      </trkpt>
      <trkpt lat="43.80097" lon="5.4427">
        <ele>676.41</ele>
        <time>2014-10-29T09:53:19Z</time>
      </trkpt>
      <trkpt lat="43.8011" lon="5.44277">
        <ele>678.12</ele>
        <time>2014-10-29T09:53:37Z</time>
      </trkpt>
      <trkpt lat="43.80123" lon="5.44274">
        <ele>679.74</ele>
        <time>2014-10-29T09:53:56Z</time>
      </trkpt>
      <trkpt lat="43.80133" lon="5.44256">
        <ele>682.81</ele>
        <time>2014-10-29T09:54:19Z</time>
      </trkpt>
      <trkpt lat="43.8013" lon="5.44249">
        <ele>683.65</ele>
        <time>2014-10-29T09:54:27Z</time>
      </trkpt>
      <trkpt lat="43.80117" lon="5.44233">
        <ele>684.63</ele>
        <time>2014-10-29T09:54:45Z</time>
      </trkpt>
      <trkpt lat="43.80104" lon="5.4421">
        <ele>685.3</ele>
        <time>2014-10-29T09:55:05Z</time>
      </trkpt>
      <trkpt lat="43.80092" lon="5.44198">
        <ele>686.23</ele>
        <time>2014-10-29T09:55:19Z</time>
      </trkpt>
      <trkpt lat="43.80088" lon="5.44194">
        <ele>686.35</ele>
        <time>2014-10-29T09:55:24Z</time>
      </trkpt>
      <trkpt lat="43.80074" lon="5.44182">
        <ele>687.14</ele>
        <time>2014-10-29T09:55:40Z</time>
      </trkpt>
      <trkpt lat="43.80062" lon="5.44171">
        <ele>688.09</ele>
        <time>2014-10-29T09:55:55Z</time>
      </trkpt>
      <trkpt lat="43.80053" lon="5.4416">
        <ele>689.45</ele>
        <time>2014-10-29T09:56:10Z</time>
      </trkpt>
      <trkpt lat="43.80041" lon="5.44146">
        <ele>690.98</ele>
        <time>2014-10-29T09:56:27Z</time>
      </trkpt>
      <trkpt lat="43.80027" lon="5.44133">
        <ele>693.17</ele>
        <time>2014-10-29T09:56:48Z</time>
      </trkpt>
      <trkpt lat="43.80012" lon="5.44122">
        <ele>695.53</ele>
        <time>2014-10-29T09:57:08Z</time>
      </trkpt>
      <trkpt lat="43.79995" lon="5.44111">
        <ele>696.86</ele>
        <time>2014-10-29T09:57:31Z</time>
      </trkpt>
      <trkpt lat="43.79984" lon="5.44092">
        <ele>697.72</ele>
        <time>2014-10-29T09:57:54Z</time>
      </trkpt>
      <trkpt lat="43.79996" lon="5.44076">
        <ele>699.21</ele>
        <time>2014-10-29T09:58:15Z</time>
      </trkpt>
      <trkpt lat="43.80014" lon="5.44052">
        <ele>700.52</ele>
        <time>2014-10-29T09:58:44Z</time>
      </trkpt>
      <trkpt lat="43.80025" lon="5.44036">
        <ele>701.57</ele>
        <time>2014-10-29T09:59:03Z</time>
      </trkpt>
      <trkpt lat="43.80036" lon="5.44017">
        <ele>702.95</ele>
        <time>2014-10-29T09:59:24Z</time>
      </trkpt>
      <trkpt lat="43.80047" lon="5.44001">
        <ele>704.35</ele>
        <time>2014-10-29T09:59:46Z</time>
      </trkpt>
      <trkpt lat="43.8005" lon="5.43997">
        <ele>705.1</ele>
        <time>2014-10-29T10:00:08Z</time>
      </trkpt>
      <trkpt lat="43.80049" lon="5.43997">
        <ele>705.19</ele>
        <time>2014-10-29T10:00:39Z</time>
      </trkpt>
      <trkpt lat="43.80053" lon="5.43995">
        <ele>705.16</ele>
        <time>2014-10-29T10:01:11Z</time>
      </trkpt>
      <trkpt lat="43.80063" lon="5.43987">
        <ele>705.55</ele>
        <time>2014-10-29T10:01:30Z</time>
      </trkpt>
      <trkpt lat="43.80077" lon="5.4398">
        <ele>706.34</ele>
        <time>2014-10-29T10:01:48Z</time>
      </trkpt>
      <trkpt lat="43.80079" lon="5.43979">
        <ele>706.48</ele>
        <time>2014-10-29T10:01:50Z</time>
      </trkpt>
      <trkpt lat="43.80092" lon="5.43975">
        <ele>707.06</ele>
        <time>2014-10-29T10:02:04Z</time>
      </trkpt>
      <trkpt lat="43.80105" lon="5.4397">
        <ele>707.09</ele>
        <time>2014-10-29T10:02:18Z</time>
      </trkpt>
      <trkpt lat="43.8012" lon="5.43968">
        <ele>706.97</ele>
        <time>2014-10-29T10:02:32Z</time>
      </trkpt>
      <trkpt lat="43.80131" lon="5.43967">
        <ele>707.96</ele>
        <time>2014-10-29T10:02:45Z</time>
      </trkpt>
      <trkpt lat="43.80144" lon="5.43961">
        <ele>710.98</ele>
        <time>2014-10-29T10:03:06Z</time>
      </trkpt>
      <trkpt lat="43.8016" lon="5.43949">
        <ele>714.11</ele>
        <time>2014-10-29T10:03:29Z</time>
      </trkpt>
      <trkpt lat="43.80174" lon="5.43948">
        <ele>716.93</ele>
        <time>2014-10-29T10:03:51Z</time>
      </trkpt>
      <trkpt lat="43.80178" lon="5.43942">
        <ele>718.81</ele>
        <time>2014-10-29T10:04:11Z</time>
      </trkpt>
      <trkpt lat="43.80168" lon="5.43942">
        <ele>718.27</ele>
        <time>2014-10-29T10:04:38Z</time>
      </trkpt>
      <trkpt lat="43.8016" lon="5.43948">
        <ele>716.27</ele>
        <time>2014-10-29T10:05:01Z</time>
      </trkpt>
      <trkpt lat="43.80154" lon="5.43949">
        <ele>715.52</ele>
        <time>2014-10-29T10:05:25Z</time>
      </trkpt>
      <trkpt lat="43.80152" lon="5.43947">
        <ele>715.27</ele>
        <time>2014-10-29T10:05:56Z</time>
      </trkpt>
      <trkpt lat="43.80149" lon="5.43955">
        <ele>715.14</ele>
        <time>2014-10-29T10:06:29Z</time>
      </trkpt>
      <trkpt lat="43.80152" lon="5.43951">
        <ele>715</ele>
        <time>2014-10-29T10:06:54Z</time>
      </trkpt>
      <trkpt lat="43.80152" lon="5.43951">
        <ele>714.88</ele>
        <time>2014-10-29T10:07:24Z</time>
      </trkpt>
      <trkpt lat="43.8015" lon="5.43952">
        <ele>714.74</ele>
        <time>2014-10-29T10:07:56Z</time>
      </trkpt>
      <trkpt lat="43.80153" lon="5.43953">
        <ele>715.04</ele>
        <time>2014-10-29T10:08:23Z</time>
      </trkpt>
      <trkpt lat="43.80152" lon="5.43954">
        <ele>714.87</ele>
        <time>2014-10-29T10:08:56Z</time>
      </trkpt>
      <trkpt lat="43.80156" lon="5.43949">
        <ele>714.78</ele>
        <time>2014-10-29T10:09:37Z</time>
      </trkpt>
      <trkpt lat="43.80154" lon="5.43946">
        <ele>714.39</ele>
        <time>2014-10-29T10:10:12Z</time>
      </trkpt>
      <trkpt lat="43.80165" lon="5.43949">
        <ele>715.62</ele>
        <time>2014-10-29T10:10:32Z</time>
      </trkpt>
      <trkpt lat="43.80177" lon="5.43941">
        <ele>717.57</ele>
        <time>2014-10-29T10:10:52Z</time>
      </trkpt>
      <trkpt lat="43.80191" lon="5.43931">
        <ele>720.41</ele>
        <time>2014-10-29T10:11:14Z</time>
      </trkpt>
      <trkpt lat="43.80204" lon="5.43925">
        <ele>723.42</ele>
        <time>2014-10-29T10:11:35Z</time>
      </trkpt>
      <trkpt lat="43.80214" lon="5.43917">
        <ele>726.09</ele>
        <time>2014-10-29T10:11:56Z</time>
      </trkpt>
      <trkpt lat="43.80223" lon="5.43912">
        <ele>727.68</ele>
        <time>2014-10-29T10:12:15Z</time>
      </trkpt>
      <trkpt lat="43.80234" lon="5.43908">
        <ele>729.45</ele>
        <time>2014-10-29T10:12:35Z</time>
      </trkpt>
      <trkpt lat="43.80243" lon="5.43899">
        <ele>732.55</ele>
        <time>2014-10-29T10:12:55Z</time>
      </trkpt>
      <trkpt lat="43.80256" lon="5.43888">
        <ele>735.08</ele>
        <time>2014-10-29T10:13:17Z</time>
      </trkpt>
      <trkpt lat="43.80263" lon="5.43874">
        <ele>737.34</ele>
        <time>2014-10-29T10:13:38Z</time>
      </trkpt>
      <trkpt lat="43.80268" lon="5.43859">
        <ele>740.16</ele>
        <time>2014-10-29T10:14:01Z</time>
      </trkpt>
      <trkpt lat="43.80274" lon="5.43845">
        <ele>742.56</ele>
        <time>2014-10-29T10:14:20Z</time>
      </trkpt>
      <trkpt lat="43.80278" lon="5.43834">
        <ele>745.33</ele>
        <time>2014-10-29T10:14:41Z</time>
      </trkpt>
      <trkpt lat="43.8029" lon="5.43821">
        <ele>748.06</ele>
        <time>2014-10-29T10:15:04Z</time>
      </trkpt>
      <trkpt lat="43.80299" lon="5.43804">
        <ele>750.57</ele>
        <time>2014-10-29T10:15:26Z</time>
      </trkpt>
      <trkpt lat="43.80309" lon="5.43793">
        <ele>753.04</ele>
        <time>2014-10-29T10:15:46Z</time>
      </trkpt>
      <trkpt lat="43.80318" lon="5.43782">
        <ele>756.07</ele>
        <time>2014-10-29T10:16:08Z</time>
      </trkpt>
      <trkpt lat="43.80328" lon="5.43774">
        <ele>758.76</ele>
        <time>2014-10-29T10:16:30Z</time>
      </trkpt>
      <trkpt lat="43.80339" lon="5.43767">
        <ele>760.97</ele>
        <time>2014-10-29T10:16:50Z</time>
      </trkpt>
      <trkpt lat="43.80352" lon="5.43754">
        <ele>763.8</ele>
        <time>2014-10-29T10:17:13Z</time>
      </trkpt>
      <trkpt lat="43.80361" lon="5.43743">
        <ele>765.77</ele>
        <time>2014-10-29T10:17:32Z</time>
      </trkpt>
      <trkpt lat="43.80358" lon="5.43736">
        <ele>767.52</ele>
        <time>2014-10-29T10:17:52Z</time>
      </trkpt>
      <trkpt lat="43.8034" lon="5.43741">
        <ele>767.71</ele>
        <time>2014-10-29T10:18:14Z</time>
      </trkpt>
      <trkpt lat="43.80331" lon="5.43734">
        <ele>768.68</ele>
        <time>2014-10-29T10:18:36Z</time>
      </trkpt>
      <trkpt lat="43.80326" lon="5.43735">
        <ele>768.71</ele>
        <time>2014-10-29T10:18:56Z</time>
      </trkpt>
      <trkpt lat="43.80326" lon="5.43733">
        <ele>768.57</ele>
        <time>2014-10-29T10:19:21Z</time>
      </trkpt>
      <trkpt lat="43.80324" lon="5.4373">
        <ele>768.57</ele>
        <time>2014-10-29T10:19:56Z</time>
      </trkpt>
      <trkpt lat="43.80326" lon="5.43731">
        <ele>768.43</ele>
        <time>2014-10-29T10:20:21Z</time>
      </trkpt>
      <trkpt lat="43.80327" lon="5.43734">
        <ele>768.09</ele>
        <time>2014-10-29T10:20:52Z</time>
      </trkpt>
      <trkpt lat="43.80325" lon="5.43732">
        <ele>768.08</ele>
        <time>2014-10-29T10:21:25Z</time>
      </trkpt>
      <trkpt lat="43.80328" lon="5.43737">
        <ele>767.97</ele>
        <time>2014-10-29T10:21:50Z</time>
      </trkpt>
      <trkpt lat="43.8033" lon="5.43737">
        <ele>767.99</ele>
        <time>2014-10-29T10:22:16Z</time>
      </trkpt>
      <trkpt lat="43.8033" lon="5.43735">
        <ele>768.09</ele>
        <time>2014-10-29T10:22:45Z</time>
      </trkpt>
      <trkpt lat="43.80322" lon="5.43738">
        <ele>767.28</ele>
        <time>2014-10-29T10:23:13Z</time>
      </trkpt>
      <trkpt lat="43.80303" lon="5.43752">
        <ele>765.54</ele>
        <time>2014-10-29T10:23:39Z</time>
      </trkpt>
      <trkpt lat="43.80286" lon="5.43764">
        <ele>764.05</ele>
        <time>2014-10-29T10:24:00Z</time>
      </trkpt>
      <trkpt lat="43.80268" lon="5.43777">
        <ele>761.93</ele>
        <time>2014-10-29T10:24:23Z</time>
      </trkpt>
      <trkpt lat="43.80259" lon="5.43784">
        <ele>760.7</ele>
        <time>2014-10-29T10:24:34Z</time>
      </trkpt>
      <trkpt lat="43.80245" lon="5.43795">
        <ele>759.32</ele>
        <time>2014-10-29T10:24:51Z</time>
      </trkpt>
      <trkpt lat="43.80232" lon="5.43804">
        <ele>757.82</ele>
        <time>2014-10-29T10:25:08Z</time>
      </trkpt>
      <trkpt lat="43.80215" lon="5.43805">
        <ele>756.03</ele>
        <time>2014-10-29T10:25:29Z</time>
      </trkpt>
      <trkpt lat="43.80199" lon="5.438">
        <ele>754.27</ele>
        <time>2014-10-29T10:25:47Z</time>
      </trkpt>
      <trkpt lat="43.80181" lon="5.43783">
        <ele>752.74</ele>
        <time>2014-10-29T10:26:11Z</time>
      </trkpt>
      <trkpt lat="43.8017" lon="5.43758">
        <ele>750.98</ele>
        <time>2014-10-29T10:26:35Z</time>
      </trkpt>
      <trkpt lat="43.80164" lon="5.43728">
        <ele>749.19</ele>
        <time>2014-10-29T10:26:59Z</time>
      </trkpt>
      <trkpt lat="43.80157" lon="5.437">
        <ele>747.57</ele>
        <time>2014-10-29T10:27:22Z</time>
      </trkpt>
      <trkpt lat="43.80149" lon="5.43672">
        <ele>746.02</ele>
        <time>2014-10-29T10:27:44Z</time>
      </trkpt>
      <trkpt lat="43.80136" lon="5.43647">
        <ele>744.49</ele>
        <time>2014-10-29T10:28:08Z</time>
      </trkpt>
      <trkpt lat="43.80122" lon="5.43628">
        <ele>743.07</ele>
        <time>2014-10-29T10:28:29Z</time>
      </trkpt>
      <trkpt lat="43.801" lon="5.4361">
        <ele>741.3</ele>
        <time>2014-10-29T10:28:54Z</time>
      </trkpt>
      <trkpt lat="43.80083" lon="5.43592">
        <ele>739.65</ele>
        <time>2014-10-29T10:29:16Z</time>
      </trkpt>
      <trkpt lat="43.80065" lon="5.4357">
        <ele>737.54</ele>
        <time>2014-10-29T10:29:41Z</time>
      </trkpt>
      <trkpt lat="43.80048" lon="5.43553">
        <ele>735.53</ele>
        <time>2014-10-29T10:30:03Z</time>
      </trkpt>
      <trkpt lat="43.80034" lon="5.43538">
        <ele>733.86</ele>
        <time>2014-10-29T10:30:21Z</time>
      </trkpt>
      <trkpt lat="43.80019" lon="5.43517">
        <ele>731.79</ele>
        <time>2014-10-29T10:30:44Z</time>
      </trkpt>
      <trkpt lat="43.80008" lon="5.43498">
        <ele>730.4</ele>
        <time>2014-10-29T10:31:03Z</time>
      </trkpt>
      <trkpt lat="43.79996" lon="5.4348">
        <ele>729.05</ele>
        <time>2014-10-29T10:31:22Z</time>
      </trkpt>
      <trkpt lat="43.79986" lon="5.43476">
        <ele>728.12</ele>
        <time>2014-10-29T10:31:35Z</time>
      </trkpt>
      <trkpt lat="43.79974" lon="5.43484">
        <ele>726.18</ele>
        <time>2014-10-29T10:31:55Z</time>
      </trkpt>
      <trkpt lat="43.79981" lon="5.43474">
        <ele>726.6</ele>
        <time>2014-10-29T10:32:14Z</time>
      </trkpt>
      <trkpt lat="43.79988" lon="5.43463">
        <ele>727.18</ele>
        <time>2014-10-29T10:32:35Z</time>
      </trkpt>
      <trkpt lat="43.79999" lon="5.4346">
        <ele>728.27</ele>
        <time>2014-10-29T10:32:54Z</time>
      </trkpt>
      <trkpt lat="43.80006" lon="5.43466">
        <ele>730.69</ele>
        <time>2014-10-29T10:33:16Z</time>
      </trkpt>
      <trkpt lat="43.80008" lon="5.43466">
        <ele>731.68</ele>
        <time>2014-10-29T10:33:32Z</time>
      </trkpt>
      <trkpt lat="43.80008" lon="5.43464">
        <ele>731.59</ele>
        <time>2014-10-29T10:33:48Z</time>
      </trkpt>
      <trkpt lat="43.80007" lon="5.43465">
        <ele>731.05</ele>
        <time>2014-10-29T10:34:30Z</time>
      </trkpt>
      <trkpt lat="43.80007" lon="5.43466">
        <ele>730.9</ele>
        <time>2014-10-29T10:35:20Z</time>
      </trkpt>
      <trkpt lat="43.80006" lon="5.43465">
        <ele>730.88</ele>
        <time>2014-10-29T10:36:10Z</time>
      </trkpt>
      <trkpt lat="43.80006" lon="5.43465">
        <ele>730.79</ele>
        <time>2014-10-29T10:37:34Z</time>
      </trkpt>
      <trkpt lat="43.80006" lon="5.43464">
        <ele>730.94</ele>
        <time>2014-10-29T10:38:45Z</time>
      </trkpt>
      <trkpt lat="43.80005" lon="5.43467">
        <ele>730.73</ele>
        <time>2014-10-29T10:40:01Z</time>
      </trkpt>
      <trkpt lat="43.80004" lon="5.43464">
        <ele>730.35</ele>
        <time>2014-10-29T10:41:05Z</time>
      </trkpt>
      <trkpt lat="43.80005" lon="5.43466">
        <ele>730.6</ele>
        <time>2014-10-29T10:42:00Z</time>
      </trkpt>
      <trkpt lat="43.80005" lon="5.43465">
        <ele>730.13</ele>
        <time>2014-10-29T10:43:08Z</time>
      </trkpt>
      <trkpt lat="43.80007" lon="5.43465">
        <ele>730.1</ele>
        <time>2014-10-29T10:45:16Z</time>
      </trkpt>
      <trkpt lat="43.80008" lon="5.43465">
        <ele>729.87</ele>
        <time>2014-10-29T10:46:55Z</time>
      </trkpt>
      <trkpt lat="43.80008" lon="5.43464">
        <ele>730.15</ele>
        <time>2014-10-29T10:48:10Z</time>
      </trkpt>
      <trkpt lat="43.80007" lon="5.43464">
        <ele>730.28</ele>
        <time>2014-10-29T10:49:04Z</time>
      </trkpt>
      <trkpt lat="43.80006" lon="5.43465">
        <ele>730.25</ele>
        <time>2014-10-29T10:49:57Z</time>
      </trkpt>
      <trkpt lat="43.80008" lon="5.43464">
        <ele>729.78</ele>
        <time>2014-10-29T10:51:10Z</time>
      </trkpt>
      <trkpt lat="43.80008" lon="5.43464">
        <ele>730.61</ele>
        <time>2014-10-29T10:52:32Z</time>
      </trkpt>
      <trkpt lat="43.80008" lon="5.43465">
        <ele>730.35</ele>
        <time>2014-10-29T10:53:36Z</time>
      </trkpt>
      <trkpt lat="43.80009" lon="5.43462">
        <ele>730.65</ele>
        <time>2014-10-29T10:54:41Z</time>
      </trkpt>
      <trkpt lat="43.80008" lon="5.43463">
        <ele>730.14</ele>
        <time>2014-10-29T10:55:50Z</time>
      </trkpt>
      <trkpt lat="43.80009" lon="5.43463">
        <ele>730.04</ele>
        <time>2014-10-29T10:57:05Z</time>
      </trkpt>
      <trkpt lat="43.80008" lon="5.43463">
        <ele>730.07</ele>
        <time>2014-10-29T10:58:07Z</time>
      </trkpt>
      <trkpt lat="43.80007" lon="5.43462">
        <ele>729.98</ele>
        <time>2014-10-29T10:59:22Z</time>
      </trkpt>
      <trkpt lat="43.80007" lon="5.43463">
        <ele>729.96</ele>
        <time>2014-10-29T11:00:32Z</time>
      </trkpt>
      <trkpt lat="43.80009" lon="5.43463">
        <ele>730.1</ele>
        <time>2014-10-29T11:01:40Z</time>
      </trkpt>
      <trkpt lat="43.80009" lon="5.43464">
        <ele>730.23</ele>
        <time>2014-10-29T11:02:34Z</time>
      </trkpt>
      <trkpt lat="43.80009" lon="5.43463">
        <ele>730.1</ele>
        <time>2014-10-29T11:03:51Z</time>
      </trkpt>
      <trkpt lat="43.80009" lon="5.43465">
        <ele>730.27</ele>
        <time>2014-10-29T11:05:09Z</time>
      </trkpt>
      <trkpt lat="43.80008" lon="5.43465">
        <ele>730.35</ele>
        <time>2014-10-29T11:06:48Z</time>
      </trkpt>
      <trkpt lat="43.80006" lon="5.43465">
        <ele>729.56</ele>
        <time>2014-10-29T11:08:13Z</time>
      </trkpt>
      <trkpt lat="43.80005" lon="5.43466">
        <ele>730.49</ele>
        <time>2014-10-29T11:10:40Z</time>
      </trkpt>
      <trkpt lat="43.80007" lon="5.43466">
        <ele>730.54</ele>
        <time>2014-10-29T11:12:48Z</time>
      </trkpt>
      <trkpt lat="43.80006" lon="5.43465">
        <ele>730.43</ele>
        <time>2014-10-29T11:14:26Z</time>
      </trkpt>
      <trkpt lat="43.80006" lon="5.43465">
        <ele>730.6</ele>
        <time>2014-10-29T11:15:51Z</time>
      </trkpt>
      <trkpt lat="43.80007" lon="5.43466">
        <ele>730.61</ele>
        <time>2014-10-29T11:17:34Z</time>
      </trkpt>
      <trkpt lat="43.80007" lon="5.43466">
        <ele>730.29</ele>
        <time>2014-10-29T11:18:45Z</time>
      </trkpt>
      <trkpt lat="43.80007" lon="5.43466">
        <ele>730.3</ele>
        <time>2014-10-29T11:21:15Z</time>
      </trkpt>
      <trkpt lat="43.80007" lon="5.43466">
        <ele>730.19</ele>
        <time>2014-10-29T11:22:31Z</time>
      </trkpt>
      <trkpt lat="43.80008" lon="5.43466">
        <ele>729.67</ele>
        <time>2014-10-29T11:24:50Z</time>
      </trkpt>
      <trkpt lat="43.80007" lon="5.43465">
        <ele>729.44</ele>
        <time>2014-10-29T11:25:32Z</time>
      </trkpt>
      <trkpt lat="43.80009" lon="5.43464">
        <ele>729.38</ele>
        <time>2014-10-29T11:26:13Z</time>
      </trkpt>
      <trkpt lat="43.80011" lon="5.43465">
        <ele>729.67</ele>
        <time>2014-10-29T11:27:27Z</time>
      </trkpt>
      <trkpt lat="43.80011" lon="5.43465">
        <ele>729.98</ele>
        <time>2014-10-29T11:28:14Z</time>
      </trkpt>
      <trkpt lat="43.8001" lon="5.43466">
        <ele>730.81</ele>
        <time>2014-10-29T11:28:28Z</time>
      </trkpt>
      <trkpt lat="43.80009" lon="5.43465">
        <ele>730.43</ele>
        <time>2014-10-29T11:28:50Z</time>
      </trkpt>
      <trkpt lat="43.80008" lon="5.43466">
        <ele>730.48</ele>
        <time>2014-10-29T11:29:18Z</time>
      </trkpt>
      <trkpt lat="43.80007" lon="5.43466">
        <ele>730.43</ele>
        <time>2014-10-29T11:29:33Z</time>
      </trkpt>
      <trkpt lat="43.80002" lon="5.43463">
        <ele>729.38</ele>
        <time>2014-10-29T11:29:51Z</time>
      </trkpt>
      <trkpt lat="43.79997" lon="5.4346">
        <ele>727.82</ele>
        <time>2014-10-29T11:30:05Z</time>
      </trkpt>
      <trkpt lat="43.79988" lon="5.43471">
        <ele>725.44</ele>
        <time>2014-10-29T11:30:22Z</time>
      </trkpt>
      <trkpt lat="43.79981" lon="5.43483">
        <ele>724.85</ele>
        <time>2014-10-29T11:30:38Z</time>
      </trkpt>
      <trkpt lat="43.79983" lon="5.43501">
        <ele>723.79</ele>
        <time>2014-10-29T11:30:57Z</time>
      </trkpt>
      <trkpt lat="43.79989" lon="5.43509">
        <ele>723.46</ele>
        <time>2014-10-29T11:31:05Z</time>
      </trkpt>
      <trkpt lat="43.80007" lon="5.43533">
        <ele>723</ele>
        <time>2014-10-29T11:31:30Z</time>
      </trkpt>
      <trkpt lat="43.80023" lon="5.43555">
        <ele>721.84</ele>
        <time>2014-10-29T11:31:52Z</time>
      </trkpt>
      <trkpt lat="43.8004" lon="5.43579">
        <ele>720.56</ele>
        <time>2014-10-29T11:32:16Z</time>
      </trkpt>
      <trkpt lat="43.80054" lon="5.43606">
        <ele>719.56</ele>
        <time>2014-10-29T11:32:41Z</time>
      </trkpt>
      <trkpt lat="43.80066" lon="5.43632">
        <ele>718.44</ele>
        <time>2014-10-29T11:33:02Z</time>
      </trkpt>
      <trkpt lat="43.80077" lon="5.43654">
        <ele>717.05</ele>
        <time>2014-10-29T11:33:24Z</time>
      </trkpt>
      <trkpt lat="43.80086" lon="5.43669">
        <ele>716.31</ele>
        <time>2014-10-29T11:33:42Z</time>
      </trkpt>
      <trkpt lat="43.801" lon="5.43689">
        <ele>715.35</ele>
        <time>2014-10-29T11:34:08Z</time>
      </trkpt>
      <trkpt lat="43.80105" lon="5.43706">
        <ele>714.53</ele>
        <time>2014-10-29T11:34:25Z</time>
      </trkpt>
      <trkpt lat="43.80105" lon="5.43709">
        <ele>714.48</ele>
        <time>2014-10-29T11:34:28Z</time>
      </trkpt>
      <trkpt lat="43.80094" lon="5.43744">
        <ele>713.56</ele>
        <time>2014-10-29T11:34:54Z</time>
      </trkpt>
      <trkpt lat="43.80079" lon="5.43767">
        <ele>711.77</ele>
        <time>2014-10-29T11:35:16Z</time>
      </trkpt>
      <trkpt lat="43.80061" lon="5.43789">
        <ele>710.12</ele>
        <time>2014-10-29T11:35:39Z</time>
      </trkpt>
      <trkpt lat="43.80044" lon="5.43803">
        <ele>708.89</ele>
        <time>2014-10-29T11:36:00Z</time>
      </trkpt>
      <trkpt lat="43.80026" lon="5.43816">
        <ele>707.35</ele>
        <time>2014-10-29T11:36:23Z</time>
      </trkpt>
      <trkpt lat="43.80008" lon="5.43832">
        <ele>706.16</ele>
        <time>2014-10-29T11:36:44Z</time>
      </trkpt>
      <trkpt lat="43.79991" lon="5.4385">
        <ele>704.32</ele>
        <time>2014-10-29T11:37:06Z</time>
      </trkpt>
      <trkpt lat="43.79979" lon="5.4385">
        <ele>703.21</ele>
        <time>2014-10-29T11:37:24Z</time>
      </trkpt>
      <trkpt lat="43.79973" lon="5.43841">
        <ele>701.68</ele>
        <time>2014-10-29T11:37:34Z</time>
      </trkpt>
      <trkpt lat="43.79969" lon="5.43834">
        <ele>700.58</ele>
        <time>2014-10-29T11:37:40Z</time>
      </trkpt>
      <trkpt lat="43.79977" lon="5.43815">
        <ele>698.01</ele>
        <time>2014-10-29T11:37:58Z</time>
      </trkpt>
      <trkpt lat="43.79981" lon="5.4381">
        <ele>697.45</ele>
        <time>2014-10-29T11:38:04Z</time>
      </trkpt>
      <trkpt lat="43.79987" lon="5.43803">
        <ele>696.82</ele>
        <time>2014-10-29T11:38:11Z</time>
      </trkpt>
      <trkpt lat="43.8001" lon="5.43775">
        <ele>695.09</ele>
        <time>2014-10-29T11:38:39Z</time>
      </trkpt>
      <trkpt lat="43.80037" lon="5.43747">
        <ele>693.15</ele>
        <time>2014-10-29T11:39:10Z</time>
      </trkpt>
      <trkpt lat="43.80047" lon="5.43729">
        <ele>691.54</ele>
        <time>2014-10-29T11:39:25Z</time>
      </trkpt>
      <trkpt lat="43.80037" lon="5.437">
        <ele>690.04</ele>
        <time>2014-10-29T11:39:46Z</time>
      </trkpt>
      <trkpt lat="43.8002" lon="5.43679">
        <ele>688.79</ele>
        <time>2014-10-29T11:40:07Z</time>
      </trkpt>
      <trkpt lat="43.80006" lon="5.43655">
        <ele>687.31</ele>
        <time>2014-10-29T11:40:28Z</time>
      </trkpt>
      <trkpt lat="43.79992" lon="5.43632">
        <ele>686.2</ele>
        <time>2014-10-29T11:40:48Z</time>
      </trkpt>
      <trkpt lat="43.79975" lon="5.43611">
        <ele>684.51</ele>
        <time>2014-10-29T11:41:09Z</time>
      </trkpt>
      <trkpt lat="43.79955" lon="5.43597">
        <ele>682.87</ele>
        <time>2014-10-29T11:41:29Z</time>
      </trkpt>
      <trkpt lat="43.79938" lon="5.43586">
        <ele>681.35</ele>
        <time>2014-10-29T11:41:47Z</time>
      </trkpt>
      <trkpt lat="43.79919" lon="5.4358">
        <ele>679.31</ele>
        <time>2014-10-29T11:42:05Z</time>
      </trkpt>
      <trkpt lat="43.799" lon="5.43571">
        <ele>677.54</ele>
        <time>2014-10-29T11:42:23Z</time>
      </trkpt>
      <trkpt lat="43.7988" lon="5.43564">
        <ele>676.08</ele>
        <time>2014-10-29T11:42:42Z</time>
      </trkpt>
      <trkpt lat="43.79873" lon="5.43562">
        <ele>675.13</ele>
        <time>2014-10-29T11:42:54Z</time>
      </trkpt>
      <trkpt lat="43.79859" lon="5.43558">
        <ele>674.3</ele>
        <time>2014-10-29T11:43:08Z</time>
      </trkpt>
      <trkpt lat="43.79839" lon="5.43551">
        <ele>672.92</ele>
        <time>2014-10-29T11:43:27Z</time>
      </trkpt>
      <trkpt lat="43.79823" lon="5.43544">
        <ele>671.7</ele>
        <time>2014-10-29T11:43:42Z</time>
      </trkpt>
      <trkpt lat="43.79801" lon="5.43534">
        <ele>670.16</ele>
        <time>2014-10-29T11:44:03Z</time>
      </trkpt>
      <trkpt lat="43.79784" lon="5.43527">
        <ele>668.57</ele>
        <time>2014-10-29T11:44:20Z</time>
      </trkpt>
      <trkpt lat="43.79766" lon="5.43516">
        <ele>666.94</ele>
        <time>2014-10-29T11:44:39Z</time>
      </trkpt>
      <trkpt lat="43.7976" lon="5.43508">
        <ele>665.66</ele>
        <time>2014-10-29T11:44:57Z</time>
      </trkpt>
      <trkpt lat="43.79761" lon="5.43508">
        <ele>665.67</ele>
        <time>2014-10-29T11:45:47Z</time>
      </trkpt>
      <trkpt lat="43.7976" lon="5.43509">
        <ele>665.81</ele>
        <time>2014-10-29T11:46:20Z</time>
      </trkpt>
      <trkpt lat="43.7976" lon="5.43508">
        <ele>665.59</ele>
        <time>2014-10-29T11:46:53Z</time>
      </trkpt>
      <trkpt lat="43.7976" lon="5.43508">
        <ele>665.68</ele>
        <time>2014-10-29T11:47:09Z</time>
      </trkpt>
      <trkpt lat="43.7976" lon="5.43509">
        <ele>665.73</ele>
        <time>2014-10-29T11:47:34Z</time>
      </trkpt>
      <trkpt lat="43.79759" lon="5.43509">
        <ele>665.58</ele>
        <time>2014-10-29T11:48:09Z</time>
      </trkpt>
      <trkpt lat="43.7976" lon="5.43509">
        <ele>665.83</ele>
        <time>2014-10-29T11:48:32Z</time>
      </trkpt>
      <trkpt lat="43.79757" lon="5.43504">
        <ele>665.99</ele>
        <time>2014-10-29T11:49:00Z</time>
      </trkpt>
      <trkpt lat="43.7975" lon="5.43483">
        <ele>665.26</ele>
        <time>2014-10-29T11:49:19Z</time>
      </trkpt>
      <trkpt lat="43.79749" lon="5.43461">
        <ele>664.05</ele>
        <time>2014-10-29T11:49:37Z</time>
      </trkpt>
      <trkpt lat="43.79756" lon="5.43431">
        <ele>662.4</ele>
        <time>2014-10-29T11:50:00Z</time>
      </trkpt>
      <trkpt lat="43.79759" lon="5.43424">
        <ele>661.92</ele>
        <time>2014-10-29T11:50:05Z</time>
      </trkpt>
      <trkpt lat="43.79774" lon="5.43398">
        <ele>659.79</ele>
        <time>2014-10-29T11:50:28Z</time>
      </trkpt>
      <trkpt lat="43.79776" lon="5.43379">
        <ele>658.52</ele>
        <time>2014-10-29T11:50:43Z</time>
      </trkpt>
      <trkpt lat="43.79765" lon="5.4336">
        <ele>657.41</ele>
        <time>2014-10-29T11:51:01Z</time>
      </trkpt>
      <trkpt lat="43.79749" lon="5.43355">
        <ele>656.16</ele>
        <time>2014-10-29T11:51:18Z</time>
      </trkpt>
      <trkpt lat="43.79736" lon="5.4335">
        <ele>655.51</ele>
        <time>2014-10-29T11:51:34Z</time>
      </trkpt>
      <trkpt lat="43.79718" lon="5.43342">
        <ele>654.02</ele>
        <time>2014-10-29T11:51:52Z</time>
      </trkpt>
      <trkpt lat="43.79701" lon="5.43335">
        <ele>652.16</ele>
        <time>2014-10-29T11:52:10Z</time>
      </trkpt>
      <trkpt lat="43.79683" lon="5.43329">
        <ele>650.71</ele>
        <time>2014-10-29T11:52:27Z</time>
      </trkpt>
      <trkpt lat="43.79665" lon="5.4332">
        <ele>649.36</ele>
        <time>2014-10-29T11:52:45Z</time>
      </trkpt>
      <trkpt lat="43.79653" lon="5.43295">
        <ele>648.06</ele>
        <time>2014-10-29T11:53:06Z</time>
      </trkpt>
      <trkpt lat="43.79653" lon="5.43269">
        <ele>647.22</ele>
        <time>2014-10-29T11:53:25Z</time>
      </trkpt>
      <trkpt lat="43.79658" lon="5.43241">
        <ele>646.14</ele>
        <time>2014-10-29T11:53:44Z</time>
      </trkpt>
      <trkpt lat="43.79661" lon="5.43216">
        <ele>644.9</ele>
        <time>2014-10-29T11:54:03Z</time>
      </trkpt>
      <trkpt lat="43.79661" lon="5.43207">
        <ele>644.23</ele>
        <time>2014-10-29T11:54:09Z</time>
      </trkpt>
      <trkpt lat="43.79656" lon="5.43188">
        <ele>642.45</ele>
        <time>2014-10-29T11:54:25Z</time>
      </trkpt>
      <trkpt lat="43.79651" lon="5.43182">
        <ele>641.73</ele>
        <time>2014-10-29T11:54:36Z</time>
      </trkpt>
      <trkpt lat="43.79646" lon="5.43178">
        <ele>641.46</ele>
        <time>2014-10-29T11:54:42Z</time>
      </trkpt>
      <trkpt lat="43.79625" lon="5.4317">
        <ele>640.09</ele>
        <time>2014-10-29T11:55:02Z</time>
      </trkpt>
      <trkpt lat="43.79622" lon="5.43169">
        <ele>639.74</ele>
        <time>2014-10-29T11:55:06Z</time>
      </trkpt>
      <trkpt lat="43.79604" lon="5.43163">
        <ele>638.45</ele>
        <time>2014-10-29T11:55:24Z</time>
      </trkpt>
      <trkpt lat="43.79584" lon="5.43158">
        <ele>637.19</ele>
        <time>2014-10-29T11:55:42Z</time>
      </trkpt>
      <trkpt lat="43.79566" lon="5.43149">
        <ele>636.24</ele>
        <time>2014-10-29T11:56:01Z</time>
      </trkpt>
      <trkpt lat="43.7955" lon="5.4314">
        <ele>635.18</ele>
        <time>2014-10-29T11:56:19Z</time>
      </trkpt>
      <trkpt lat="43.79533" lon="5.43127">
        <ele>634.2</ele>
        <time>2014-10-29T11:56:38Z</time>
      </trkpt>
      <trkpt lat="43.79517" lon="5.43105">
        <ele>633.04</ele>
        <time>2014-10-29T11:56:59Z</time>
      </trkpt>
      <trkpt lat="43.79504" lon="5.43085">
        <ele>631.84</ele>
        <time>2014-10-29T11:57:18Z</time>
      </trkpt>
      <trkpt lat="43.79491" lon="5.43063">
        <ele>630.84</ele>
        <time>2014-10-29T11:57:38Z</time>
      </trkpt>
      <trkpt lat="43.79479" lon="5.43052">
        <ele>628.42</ele>
        <time>2014-10-29T11:57:56Z</time>
      </trkpt>
      <trkpt lat="43.79474" lon="5.43049">
        <ele>627.6</ele>
        <time>2014-10-29T11:58:11Z</time>
      </trkpt>
      <trkpt lat="43.79474" lon="5.43048">
        <ele>627.45</ele>
        <time>2014-10-29T11:58:35Z</time>
      </trkpt>
      <trkpt lat="43.79474" lon="5.43046">
        <ele>627.07</ele>
        <time>2014-10-29T11:59:05Z</time>
      </trkpt>
      <trkpt lat="43.79473" lon="5.43046">
        <ele>627.03</ele>
        <time>2014-10-29T11:59:30Z</time>
      </trkpt>
      <trkpt lat="43.79474" lon="5.43047">
        <ele>627.15</ele>
        <time>2014-10-29T11:59:59Z</time>
      </trkpt>
      <trkpt lat="43.79474" lon="5.43047">
        <ele>626.99</ele>
        <time>2014-10-29T12:00:30Z</time>
      </trkpt>
      <trkpt lat="43.79473" lon="5.43046">
        <ele>626.88</ele>
        <time>2014-10-29T12:01:00Z</time>
      </trkpt>
      <trkpt lat="43.79474" lon="5.43047">
        <ele>626.99</ele>
        <time>2014-10-29T12:01:23Z</time>
      </trkpt>
      <trkpt lat="43.79469" lon="5.43034">
        <ele>625.89</ele>
        <time>2014-10-29T12:01:50Z</time>
      </trkpt>
      <trkpt lat="43.7946" lon="5.43022">
        <ele>623.25</ele>
        <time>2014-10-29T12:02:10Z</time>
      </trkpt>
      <trkpt lat="43.79451" lon="5.43034">
        <ele>620.65</ele>
        <time>2014-10-29T12:02:31Z</time>
      </trkpt>
      <trkpt lat="43.79445" lon="5.43053">
        <ele>618.54</ele>
        <time>2014-10-29T12:02:51Z</time>
      </trkpt>
      <trkpt lat="43.79443" lon="5.43075">
        <ele>616.25</ele>
        <time>2014-10-29T12:03:11Z</time>
      </trkpt>
      <trkpt lat="43.79444" lon="5.43081">
        <ele>615.9</ele>
        <time>2014-10-29T12:03:17Z</time>
      </trkpt>
      <trkpt lat="43.79446" lon="5.43098">
        <ele>614.91</ele>
        <time>2014-10-29T12:03:34Z</time>
      </trkpt>
      <trkpt lat="43.79434" lon="5.431">
        <ele>612.68</ele>
        <time>2014-10-29T12:03:52Z</time>
      </trkpt>
      <trkpt lat="43.7942" lon="5.43093">
        <ele>610.04</ele>
        <time>2014-10-29T12:04:12Z</time>
      </trkpt>
      <trkpt lat="43.79408" lon="5.43087">
        <ele>608.07</ele>
        <time>2014-10-29T12:04:26Z</time>
      </trkpt>
      <trkpt lat="43.79399" lon="5.43081">
        <ele>606.75</ele>
        <time>2014-10-29T12:04:37Z</time>
      </trkpt>
      <trkpt lat="43.79382" lon="5.43065">
        <ele>604.13</ele>
        <time>2014-10-29T12:04:59Z</time>
      </trkpt>
      <trkpt lat="43.79377" lon="5.43048">
        <ele>602</ele>
        <time>2014-10-29T12:05:17Z</time>
      </trkpt>
      <trkpt lat="43.79373" lon="5.43029">
        <ele>598.92</ele>
        <time>2014-10-29T12:05:39Z</time>
      </trkpt>
      <trkpt lat="43.79372" lon="5.43009">
        <ele>595.86</ele>
        <time>2014-10-29T12:06:00Z</time>
      </trkpt>
      <trkpt lat="43.7937" lon="5.42985">
        <ele>593.37</ele>
        <time>2014-10-29T12:06:22Z</time>
      </trkpt>
      <trkpt lat="43.79366" lon="5.42968">
        <ele>591.06</ele>
        <time>2014-10-29T12:06:41Z</time>
      </trkpt>
      <trkpt lat="43.79356" lon="5.42952">
        <ele>588.16</ele>
        <time>2014-10-29T12:07:00Z</time>
      </trkpt>
      <trkpt lat="43.79344" lon="5.42941">
        <ele>586.07</ele>
        <time>2014-10-29T12:07:17Z</time>
      </trkpt>
      <trkpt lat="43.79341" lon="5.42939">
        <ele>585.7</ele>
        <time>2014-10-29T12:07:21Z</time>
      </trkpt>
      <trkpt lat="43.79331" lon="5.42926">
        <ele>583.85</ele>
        <time>2014-10-29T12:07:38Z</time>
      </trkpt>
      <trkpt lat="43.79329" lon="5.42922">
        <ele>583.11</ele>
        <time>2014-10-29T12:07:55Z</time>
      </trkpt>
      <trkpt lat="43.7933" lon="5.42921">
        <ele>583.04</ele>
        <time>2014-10-29T12:08:13Z</time>
      </trkpt>
      <trkpt lat="43.79328" lon="5.42922">
        <ele>582.97</ele>
        <time>2014-10-29T12:08:31Z</time>
      </trkpt>
      <trkpt lat="43.79315" lon="5.42927">
        <ele>579.94</ele>
        <time>2014-10-29T12:08:57Z</time>
      </trkpt>
      <trkpt lat="43.79313" lon="5.42927">
        <ele>579.6</ele>
        <time>2014-10-29T12:09:00Z</time>
      </trkpt>
      <trkpt lat="43.79304" lon="5.42931">
        <ele>578.54</ele>
        <time>2014-10-29T12:09:11Z</time>
      </trkpt>
      <trkpt lat="43.79291" lon="5.42932">
        <ele>576.82</ele>
        <time>2014-10-29T12:09:27Z</time>
      </trkpt>
      <trkpt lat="43.7929" lon="5.42932">
        <ele>576.7</ele>
        <time>2014-10-29T12:09:28Z</time>
      </trkpt>
      <trkpt lat="43.79274" lon="5.4293">
        <ele>575.35</ele>
        <time>2014-10-29T12:09:44Z</time>
      </trkpt>
      <trkpt lat="43.79256" lon="5.42923">
        <ele>574.13</ele>
        <time>2014-10-29T12:10:01Z</time>
      </trkpt>
      <trkpt lat="43.79242" lon="5.42919">
        <ele>572.9</ele>
        <time>2014-10-29T12:10:16Z</time>
      </trkpt>
      <trkpt lat="43.7923" lon="5.42919">
        <ele>571.15</ele>
        <time>2014-10-29T12:10:32Z</time>
      </trkpt>
      <trkpt lat="43.79214" lon="5.42923">
        <ele>569.6</ele>
        <time>2014-10-29T12:10:50Z</time>
      </trkpt>
      <trkpt lat="43.792" lon="5.42929">
        <ele>568.3</ele>
        <time>2014-10-29T12:11:07Z</time>
      </trkpt>
      <trkpt lat="43.79182" lon="5.42925">
        <ele>566.51</ele>
        <time>2014-10-29T12:11:24Z</time>
      </trkpt>
      <trkpt lat="43.7917" lon="5.42924">
        <ele>565.05</ele>
        <time>2014-10-29T12:11:40Z</time>
      </trkpt>
      <trkpt lat="43.79161" lon="5.4292">
        <ele>563.98</ele>
        <time>2014-10-29T12:12:01Z</time>
      </trkpt>
      <trkpt lat="43.79146" lon="5.42909">
        <ele>562.28</ele>
        <time>2014-10-29T12:12:21Z</time>
      </trkpt>
      <trkpt lat="43.79134" lon="5.429">
        <ele>560.25</ele>
        <time>2014-10-29T12:12:39Z</time>
      </trkpt>
      <trkpt lat="43.79119" lon="5.42886">
        <ele>558.46</ele>
        <time>2014-10-29T12:12:59Z</time>
      </trkpt>
      <trkpt lat="43.79107" lon="5.42875">
        <ele>555.56</ele>
        <time>2014-10-29T12:13:19Z</time>
      </trkpt>
      <trkpt lat="43.79095" lon="5.42863">
        <ele>553.41</ele>
        <time>2014-10-29T12:13:38Z</time>
      </trkpt>
      <trkpt lat="43.79084" lon="5.42857">
        <ele>551.2</ele>
        <time>2014-10-29T12:13:53Z</time>
      </trkpt>
      <trkpt lat="43.79073" lon="5.42848">
        <ele>548.72</ele>
        <time>2014-10-29T12:14:11Z</time>
      </trkpt>
      <trkpt lat="43.7906" lon="5.42833">
        <ele>546.09</ele>
        <time>2014-10-29T12:14:31Z</time>
      </trkpt>
      <trkpt lat="43.79056" lon="5.42828">
        <ele>544.85</ele>
        <time>2014-10-29T12:14:38Z</time>
      </trkpt>
      <trkpt lat="43.79046" lon="5.42811">
        <ele>542.23</ele>
        <time>2014-10-29T12:14:55Z</time>
      </trkpt>
      <trkpt lat="43.79046" lon="5.4281">
        <ele>542.06</ele>
        <time>2014-10-29T12:14:56Z</time>
      </trkpt>
      <trkpt lat="43.79036" lon="5.42795">
        <ele>539.33</ele>
        <time>2014-10-29T12:15:14Z</time>
      </trkpt>
      <trkpt lat="43.79029" lon="5.42782">
        <ele>537.05</ele>
        <time>2014-10-29T12:15:28Z</time>
      </trkpt>
      <trkpt lat="43.79023" lon="5.42772">
        <ele>535.38</ele>
        <time>2014-10-29T12:15:40Z</time>
      </trkpt>
      <trkpt lat="43.79013" lon="5.42756">
        <ele>532.5</ele>
        <time>2014-10-29T12:15:57Z</time>
      </trkpt>
      <trkpt lat="43.79004" lon="5.42742">
        <ele>529.98</ele>
        <time>2014-10-29T12:16:14Z</time>
      </trkpt>
      <trkpt lat="43.78993" lon="5.42723">
        <ele>527.11</ele>
        <time>2014-10-29T12:16:35Z</time>
      </trkpt>
      <trkpt lat="43.78987" lon="5.4271">
        <ele>524.64</ele>
        <time>2014-10-29T12:16:48Z</time>
      </trkpt>
      <trkpt lat="43.78982" lon="5.42702">
        <ele>523.14</ele>
        <time>2014-10-29T12:16:58Z</time>
      </trkpt>
      <trkpt lat="43.78978" lon="5.427">
        <ele>522.38</ele>
        <time>2014-10-29T12:17:02Z</time>
      </trkpt>
      <trkpt lat="43.78969" lon="5.42681">
        <ele>519.24</ele>
        <time>2014-10-29T12:17:20Z</time>
      </trkpt>
      <trkpt lat="43.78959" lon="5.42671">
        <ele>517.07</ele>
        <time>2014-10-29T12:17:35Z</time>
      </trkpt>
      <trkpt lat="43.78948" lon="5.42656">
        <ele>515.2</ele>
        <time>2014-10-29T12:17:52Z</time>
      </trkpt>
      <trkpt lat="43.78932" lon="5.42643">
        <ele>512.96</ele>
        <time>2014-10-29T12:18:12Z</time>
      </trkpt>
      <trkpt lat="43.78917" lon="5.42631">
        <ele>511.24</ele>
        <time>2014-10-29T12:18:32Z</time>
      </trkpt>
      <trkpt lat="43.7891" lon="5.42622">
        <ele>509.75</ele>
        <time>2014-10-29T12:18:50Z</time>
      </trkpt>
      <trkpt lat="43.78906" lon="5.42622">
        <ele>509.55</ele>
        <time>2014-10-29T12:19:03Z</time>
      </trkpt>
      <trkpt lat="43.78908" lon="5.42613">
        <ele>509.44</ele>
        <time>2014-10-29T12:19:16Z</time>
      </trkpt>
      <trkpt lat="43.78904" lon="5.42612">
        <ele>509.23</ele>
        <time>2014-10-29T12:19:35Z</time>
      </trkpt>
      <trkpt lat="43.78902" lon="5.42609">
        <ele>509</ele>
        <time>2014-10-29T12:19:55Z</time>
      </trkpt>
      <trkpt lat="43.78904" lon="5.4261">
        <ele>507.8</ele>
        <time>2014-10-29T12:20:23Z</time>
      </trkpt>
      <trkpt lat="43.78903" lon="5.4261">
        <ele>508.56</ele>
        <time>2014-10-29T12:21:02Z</time>
      </trkpt>
      <trkpt lat="43.78905" lon="5.42611">
        <ele>507.86</ele>
        <time>2014-10-29T12:21:58Z</time>
      </trkpt>
      <trkpt lat="43.78904" lon="5.4261">
        <ele>508.81</ele>
        <time>2014-10-29T12:22:56Z</time>
      </trkpt>
      <trkpt lat="43.78904" lon="5.42609">
        <ele>508.71</ele>
        <time>2014-10-29T12:23:21Z</time>
      </trkpt>
      <trkpt lat="43.78899" lon="5.42611">
        <ele>508.82</ele>
        <time>2014-10-29T12:23:38Z</time>
      </trkpt>
      <trkpt lat="43.78896" lon="5.42616">
        <ele>508.5</ele>
        <time>2014-10-29T12:23:59Z</time>
      </trkpt>
      <trkpt lat="43.78895" lon="5.42617">
        <ele>508.39</ele>
        <time>2014-10-29T12:24:27Z</time>
      </trkpt>
      <trkpt lat="43.78895" lon="5.42615">
        <ele>508.34</ele>
        <time>2014-10-29T12:25:03Z</time>
      </trkpt>
      <trkpt lat="43.78894" lon="5.42615">
        <ele>508.2</ele>
        <time>2014-10-29T12:25:30Z</time>
      </trkpt>
      <trkpt lat="43.78895" lon="5.42618">
        <ele>507.96</ele>
        <time>2014-10-29T12:26:07Z</time>
      </trkpt>
      <trkpt lat="43.78894" lon="5.42619">
        <ele>508</ele>
        <time>2014-10-29T12:26:46Z</time>
      </trkpt>
      <trkpt lat="43.78887" lon="5.42612">
        <ele>507.31</ele>
        <time>2014-10-29T12:27:10Z</time>
      </trkpt>
      <trkpt lat="43.78874" lon="5.42601">
        <ele>506.13</ele>
        <time>2014-10-29T12:27:34Z</time>
      </trkpt>
      <trkpt lat="43.7886" lon="5.42587">
        <ele>505.05</ele>
        <time>2014-10-29T12:27:55Z</time>
      </trkpt>
      <trkpt lat="43.78845" lon="5.42571">
        <ele>504.25</ele>
        <time>2014-10-29T12:28:16Z</time>
      </trkpt>
      <trkpt lat="43.78837" lon="5.42564">
        <ele>504.1</ele>
        <time>2014-10-29T12:28:26Z</time>
      </trkpt>
      <trkpt lat="43.78821" lon="5.42549">
        <ele>502.82</ele>
        <time>2014-10-29T12:28:47Z</time>
      </trkpt>
      <trkpt lat="43.78819" lon="5.42547">
        <ele>502.7</ele>
        <time>2014-10-29T12:28:50Z</time>
      </trkpt>
      <trkpt lat="43.78806" lon="5.42536">
        <ele>502</ele>
        <time>2014-10-29T12:29:07Z</time>
      </trkpt>
      <trkpt lat="43.78797" lon="5.42524">
        <ele>501.31</ele>
        <time>2014-10-29T12:29:23Z</time>
      </trkpt>
      <trkpt lat="43.78795" lon="5.42521">
        <ele>501.17</ele>
        <time>2014-10-29T12:29:43Z</time>
      </trkpt>
      <trkpt lat="43.78787" lon="5.42518">
        <ele>500.94</ele>
        <time>2014-10-29T12:29:58Z</time>
      </trkpt>
      <trkpt lat="43.78773" lon="5.4251">
        <ele>499.84</ele>
        <time>2014-10-29T12:30:16Z</time>
      </trkpt>
      <trkpt lat="43.78772" lon="5.42509">
        <ele>499.64</ele>
        <time>2014-10-29T12:30:18Z</time>
      </trkpt>
      <trkpt lat="43.78765" lon="5.42504">
        <ele>498.76</ele>
        <time>2014-10-29T12:30:27Z</time>
      </trkpt>
      <trkpt lat="43.78748" lon="5.42497">
        <ele>496.62</ele>
        <time>2014-10-29T12:30:46Z</time>
      </trkpt>
      <trkpt lat="43.78735" lon="5.4249">
        <ele>494.91</ele>
        <time>2014-10-29T12:31:02Z</time>
      </trkpt>
      <trkpt lat="43.78718" lon="5.42484">
        <ele>492.7</ele>
        <time>2014-10-29T12:31:22Z</time>
      </trkpt>
      <trkpt lat="43.78704" lon="5.42477">
        <ele>489.87</ele>
        <time>2014-10-29T12:31:40Z</time>
      </trkpt>
      <trkpt lat="43.78689" lon="5.42469">
        <ele>486.91</ele>
        <time>2014-10-29T12:31:58Z</time>
      </trkpt>
      <trkpt lat="43.78677" lon="5.42462">
        <ele>483.88</ele>
        <time>2014-10-29T12:32:16Z</time>
      </trkpt>
      <trkpt lat="43.78666" lon="5.42459">
        <ele>481.79</ele>
        <time>2014-10-29T12:32:35Z</time>
      </trkpt>
      <trkpt lat="43.78651" lon="5.42452">
        <ele>478.83</ele>
        <time>2014-10-29T12:32:57Z</time>
      </trkpt>
      <trkpt lat="43.78636" lon="5.42446">
        <ele>475.89</ele>
        <time>2014-10-29T12:33:16Z</time>
      </trkpt>
      <trkpt lat="43.78625" lon="5.42441">
        <ele>473.49</ele>
        <time>2014-10-29T12:33:36Z</time>
      </trkpt>
      <trkpt lat="43.78611" lon="5.42438">
        <ele>471.28</ele>
        <time>2014-10-29T12:33:54Z</time>
      </trkpt>
      <trkpt lat="43.78597" lon="5.42426">
        <ele>468.69</ele>
        <time>2014-10-29T12:34:15Z</time>
      </trkpt>
      <trkpt lat="43.78585" lon="5.42421">
        <ele>467.13</ele>
        <time>2014-10-29T12:34:31Z</time>
      </trkpt>
      <trkpt lat="43.78572" lon="5.42409">
        <ele>465.06</ele>
        <time>2014-10-29T12:34:50Z</time>
      </trkpt>
      <trkpt lat="43.78559" lon="5.42396">
        <ele>462.82</ele>
        <time>2014-10-29T12:35:10Z</time>
      </trkpt>
      <trkpt lat="43.78543" lon="5.42381">
        <ele>460.95</ele>
        <time>2014-10-29T12:35:31Z</time>
      </trkpt>
      <trkpt lat="43.78531" lon="5.42367">
        <ele>458.34</ele>
        <time>2014-10-29T12:35:52Z</time>
      </trkpt>
      <trkpt lat="43.78519" lon="5.42353">
        <ele>456.31</ele>
        <time>2014-10-29T12:36:12Z</time>
      </trkpt>
      <trkpt lat="43.7851" lon="5.4234">
        <ele>453.73</ele>
        <time>2014-10-29T12:36:30Z</time>
      </trkpt>
      <trkpt lat="43.78499" lon="5.42327">
        <ele>451.33</ele>
        <time>2014-10-29T12:36:47Z</time>
      </trkpt>
      <trkpt lat="43.78489" lon="5.42313">
        <ele>449.96</ele>
        <time>2014-10-29T12:37:05Z</time>
      </trkpt>
      <trkpt lat="43.78478" lon="5.42296">
        <ele>448.38</ele>
        <time>2014-10-29T12:37:26Z</time>
      </trkpt>
      <trkpt lat="43.78468" lon="5.42283">
        <ele>446.52</ele>
        <time>2014-10-29T12:37:45Z</time>
      </trkpt>
      <trkpt lat="43.78464" lon="5.42275">
        <ele>445.63</ele>
        <time>2014-10-29T12:38:07Z</time>
      </trkpt>
      <trkpt lat="43.78464" lon="5.42272">
        <ele>445.7</ele>
        <time>2014-10-29T12:38:27Z</time>
      </trkpt>
      <trkpt lat="43.78464" lon="5.42271">
        <ele>444.47</ele>
        <time>2014-10-29T12:38:46Z</time>
      </trkpt>
      <trkpt lat="43.78467" lon="5.4227">
        <ele>443.65</ele>
        <time>2014-10-29T12:39:16Z</time>
      </trkpt>
      <trkpt lat="43.78467" lon="5.42267">
        <ele>443.93</ele>
        <time>2014-10-29T12:40:02Z</time>
      </trkpt>
      <trkpt lat="43.78465" lon="5.42269">
        <ele>443.68</ele>
        <time>2014-10-29T12:40:54Z</time>
      </trkpt>
      <trkpt lat="43.78465" lon="5.42268">
        <ele>444.15</ele>
        <time>2014-10-29T12:41:35Z</time>
      </trkpt>
      <trkpt lat="43.78464" lon="5.42269">
        <ele>443.35</ele>
        <time>2014-10-29T12:45:27Z</time>
      </trkpt>
      <trkpt lat="43.78464" lon="5.42267">
        <ele>444.21</ele>
        <time>2014-10-29T12:45:52Z</time>
      </trkpt>
      <trkpt lat="43.78465" lon="5.42269">
        <ele>444.4</ele>
        <time>2014-10-29T12:46:12Z</time>
      </trkpt>
      <trkpt lat="43.78473" lon="5.42275">
        <ele>444.18</ele>
        <time>2014-10-29T12:46:27Z</time>
      </trkpt>
      <trkpt lat="43.78484" lon="5.42283">
        <ele>444.2</ele>
        <time>2014-10-29T12:46:44Z</time>
      </trkpt>
      <trkpt lat="43.78496" lon="5.42291">
        <ele>444.56</ele>
        <time>2014-10-29T12:47:01Z</time>
      </trkpt>
      <trkpt lat="43.78509" lon="5.42301">
        <ele>444.76</ele>
        <time>2014-10-29T12:47:18Z</time>
      </trkpt>
      <trkpt lat="43.78525" lon="5.42311">
        <ele>444.22</ele>
        <time>2014-10-29T12:47:37Z</time>
      </trkpt>
      <trkpt lat="43.78541" lon="5.42319">
        <ele>443.44</ele>
        <time>2014-10-29T12:47:55Z</time>
      </trkpt>
      <trkpt lat="43.78557" lon="5.42325">
        <ele>442.11</ele>
        <time>2014-10-29T12:48:13Z</time>
      </trkpt>
      <trkpt lat="43.78569" lon="5.42328">
        <ele>440.82</ele>
        <time>2014-10-29T12:48:26Z</time>
      </trkpt>
      <trkpt lat="43.78585" lon="5.42333">
        <ele>439.92</ele>
        <time>2014-10-29T12:48:44Z</time>
      </trkpt>
      <trkpt lat="43.78602" lon="5.42335">
        <ele>439.85</ele>
        <time>2014-10-29T12:49:01Z</time>
      </trkpt>
      <trkpt lat="43.78605" lon="5.42335">
        <ele>439.92</ele>
        <time>2014-10-29T12:49:04Z</time>
      </trkpt>
      <trkpt lat="43.78618" lon="5.42332">
        <ele>440.7</ele>
        <time>2014-10-29T12:49:19Z</time>
      </trkpt>
      <trkpt lat="43.78639" lon="5.42329">
        <ele>441.77</ele>
        <time>2014-10-29T12:49:39Z</time>
      </trkpt>
      <trkpt lat="43.78655" lon="5.4233">
        <ele>442.13</ele>
        <time>2014-10-29T12:49:55Z</time>
      </trkpt>
      <trkpt lat="43.78671" lon="5.42334">
        <ele>441.95</ele>
        <time>2014-10-29T12:50:13Z</time>
      </trkpt>
      <trkpt lat="43.78677" lon="5.42336">
        <ele>442</ele>
        <time>2014-10-29T12:50:20Z</time>
      </trkpt>
      <trkpt lat="43.78694" lon="5.42338">
        <ele>442.33</ele>
        <time>2014-10-29T12:50:39Z</time>
      </trkpt>
      <trkpt lat="43.78712" lon="5.42343">
        <ele>441.65</ele>
        <time>2014-10-29T12:50:57Z</time>
      </trkpt>
      <trkpt lat="43.78732" lon="5.42346">
        <ele>440.18</ele>
        <time>2014-10-29T12:51:17Z</time>
      </trkpt>
      <trkpt lat="43.78748" lon="5.42348">
        <ele>439.18</ele>
        <time>2014-10-29T12:51:34Z</time>
      </trkpt>
      <trkpt lat="43.78757" lon="5.42347">
        <ele>437.76</ele>
        <time>2014-10-29T12:51:53Z</time>
      </trkpt>
      <trkpt lat="43.7875" lon="5.42341">
        <ele>435.43</ele>
        <time>2014-10-29T12:52:18Z</time>
      </trkpt>
      <trkpt lat="43.78733" lon="5.42324">
        <ele>433.7</ele>
        <time>2014-10-29T12:52:41Z</time>
      </trkpt>
      <trkpt lat="43.78717" lon="5.42306">
        <ele>431.63</ele>
        <time>2014-10-29T12:53:04Z</time>
      </trkpt>
      <trkpt lat="43.78714" lon="5.423">
        <ele>431.17</ele>
        <time>2014-10-29T12:53:09Z</time>
      </trkpt>
      <trkpt lat="43.78703" lon="5.42284">
        <ele>429.37</ele>
        <time>2014-10-29T12:53:24Z</time>
      </trkpt>
      <trkpt lat="43.78692" lon="5.42264">
        <ele>427.7</ele>
        <time>2014-10-29T12:53:42Z</time>
      </trkpt>
      <trkpt lat="43.78678" lon="5.42249">
        <ele>425.75</ele>
        <time>2014-10-29T12:54:01Z</time>
      </trkpt>
      <trkpt lat="43.78661" lon="5.42238">
        <ele>423.74</ele>
        <time>2014-10-29T12:54:23Z</time>
      </trkpt>
      <trkpt lat="43.78642" lon="5.42223">
        <ele>422.3</ele>
        <time>2014-10-29T12:54:42Z</time>
      </trkpt>
      <trkpt lat="43.78628" lon="5.42214">
        <ele>421.08</ele>
        <time>2014-10-29T12:55:00Z</time>
      </trkpt>
      <trkpt lat="43.7861" lon="5.42203">
        <ele>420.17</ele>
        <time>2014-10-29T12:55:18Z</time>
      </trkpt>
      <trkpt lat="43.78589" lon="5.42192">
        <ele>418.52</ele>
        <time>2014-10-29T12:55:38Z</time>
      </trkpt>
      <trkpt lat="43.78572" lon="5.42182">
        <ele>417.47</ele>
        <time>2014-10-29T12:55:56Z</time>
      </trkpt>
      <trkpt lat="43.78564" lon="5.42177">
        <ele>416.62</ele>
        <time>2014-10-29T12:56:12Z</time>
      </trkpt>
      <trkpt lat="43.78551" lon="5.42171">
        <ele>415.71</ele>
        <time>2014-10-29T12:56:31Z</time>
      </trkpt>
      <trkpt lat="43.78536" lon="5.42162">
        <ele>414.82</ele>
        <time>2014-10-29T12:56:48Z</time>
      </trkpt>
      <trkpt lat="43.78521" lon="5.42151">
        <ele>413.6</ele>
        <time>2014-10-29T12:57:06Z</time>
      </trkpt>
      <trkpt lat="43.785" lon="5.42137">
        <ele>412.06</ele>
        <time>2014-10-29T12:57:25Z</time>
      </trkpt>
      <trkpt lat="43.78482" lon="5.42122">
        <ele>410.51</ele>
        <time>2014-10-29T12:57:43Z</time>
      </trkpt>
      <trkpt lat="43.78468" lon="5.42109">
        <ele>409.16</ele>
        <time>2014-10-29T12:58:00Z</time>
      </trkpt>
      <trkpt lat="43.78453" lon="5.42094">
        <ele>407.98</ele>
        <time>2014-10-29T12:58:17Z</time>
      </trkpt>
      <trkpt lat="43.78442" lon="5.42084">
        <ele>406.85</ele>
        <time>2014-10-29T12:58:32Z</time>
      </trkpt>
      <trkpt lat="43.78428" lon="5.42071">
        <ele>405.43</ele>
        <time>2014-10-29T12:58:50Z</time>
      </trkpt>
      <trkpt lat="43.78421" lon="5.42055">
        <ele>404.28</ele>
        <time>2014-10-29T12:59:05Z</time>
      </trkpt>
      <trkpt lat="43.78408" lon="5.42043">
        <ele>403.82</ele>
        <time>2014-10-29T12:59:21Z</time>
      </trkpt>
      <trkpt lat="43.78401" lon="5.42034">
        <ele>402.76</ele>
        <time>2014-10-29T12:59:37Z</time>
      </trkpt>
      <trkpt lat="43.784" lon="5.42034">
        <ele>402.47</ele>
        <time>2014-10-29T12:59:59Z</time>
      </trkpt>
      <trkpt lat="43.78397" lon="5.42032">
        <ele>402.17</ele>
        <time>2014-10-29T13:00:25Z</time>
      </trkpt>
      <trkpt lat="43.78392" lon="5.42021">
        <ele>401.35</ele>
        <time>2014-10-29T13:00:44Z</time>
      </trkpt>
      <trkpt lat="43.78379" lon="5.42007">
        <ele>400.66</ele>
        <time>2014-10-29T13:01:03Z</time>
      </trkpt>
      <trkpt lat="43.78378" lon="5.42005">
        <ele>400.52</ele>
        <time>2014-10-29T13:01:05Z</time>
      </trkpt>
      <trkpt lat="43.78361" lon="5.41986">
        <ele>399.38</ele>
        <time>2014-10-29T13:01:26Z</time>
      </trkpt>
      <trkpt lat="43.78345" lon="5.41973">
        <ele>398.25</ele>
        <time>2014-10-29T13:01:44Z</time>
      </trkpt>
      <trkpt lat="43.78333" lon="5.41963">
        <ele>396.89</ele>
        <time>2014-10-29T13:02:03Z</time>
      </trkpt>
      <trkpt lat="43.78322" lon="5.41953">
        <ele>396.16</ele>
        <time>2014-10-29T13:02:18Z</time>
      </trkpt>
      <trkpt lat="43.78312" lon="5.41945">
        <ele>395.93</ele>
        <time>2014-10-29T13:02:28Z</time>
      </trkpt>
      <trkpt lat="43.78295" lon="5.41924">
        <ele>394.84</ele>
        <time>2014-10-29T13:02:49Z</time>
      </trkpt>
      <trkpt lat="43.78283" lon="5.41903">
        <ele>394.5</ele>
        <time>2014-10-29T13:03:08Z</time>
      </trkpt>
      <trkpt lat="43.78267" lon="5.41882">
        <ele>393.4</ele>
        <time>2014-10-29T13:03:29Z</time>
      </trkpt>
      <trkpt lat="43.78248" lon="5.41861">
        <ele>392.38</ele>
        <time>2014-10-29T13:03:52Z</time>
      </trkpt>
      <trkpt lat="43.78235" lon="5.41843">
        <ele>391.47</ele>
        <time>2014-10-29T13:04:11Z</time>
      </trkpt>
      <trkpt lat="43.78226" lon="5.41826">
        <ele>390.86</ele>
        <time>2014-10-29T13:04:25Z</time>
      </trkpt>
      <trkpt lat="43.78216" lon="5.41814">
        <ele>390.53</ele>
        <time>2014-10-29T13:04:44Z</time>
      </trkpt>
      <trkpt lat="43.78211" lon="5.41811">
        <ele>390.27</ele>
        <time>2014-10-29T13:05:00Z</time>
      </trkpt>
      <trkpt lat="43.78203" lon="5.41811">
        <ele>389.94</ele>
        <time>2014-10-29T13:05:20Z</time>
      </trkpt>
      <trkpt lat="43.78193" lon="5.41809">
        <ele>389.5</ele>
        <time>2014-10-29T13:05:33Z</time>
      </trkpt>
      <trkpt lat="43.7819" lon="5.41809">
        <ele>389.47</ele>
        <time>2014-10-29T13:05:35Z</time>
      </trkpt>
      <trkpt lat="43.78187" lon="5.41807">
        <ele>389.27</ele>
        <time>2014-10-29T13:05:38Z</time>
      </trkpt>
      <trkpt lat="43.7817" lon="5.41791">
        <ele>388.03</ele>
        <time>2014-10-29T13:05:55Z</time>
      </trkpt>
      <trkpt lat="43.78154" lon="5.41776">
        <ele>387.09</ele>
        <time>2014-10-29T13:06:13Z</time>
      </trkpt>
      <trkpt lat="43.78134" lon="5.4176">
        <ele>386.38</ele>
        <time>2014-10-29T13:06:32Z</time>
      </trkpt>
      <trkpt lat="43.78111" lon="5.41746">
        <ele>385.26</ele>
        <time>2014-10-29T13:06:52Z</time>
      </trkpt>
      <trkpt lat="43.78088" lon="5.41738">
        <ele>384.21</ele>
        <time>2014-10-29T13:07:13Z</time>
      </trkpt>
      <trkpt lat="43.7807" lon="5.41737">
        <ele>383.56</ele>
        <time>2014-10-29T13:07:32Z</time>
      </trkpt>
      <trkpt lat="43.7805" lon="5.4174">
        <ele>382.63</ele>
        <time>2014-10-29T13:07:51Z</time>
      </trkpt>
      <trkpt lat="43.78029" lon="5.41743">
        <ele>382.17</ele>
        <time>2014-10-29T13:08:11Z</time>
      </trkpt>
      <trkpt lat="43.78008" lon="5.41745">
        <ele>380.86</ele>
        <time>2014-10-29T13:08:31Z</time>
      </trkpt>
      <trkpt lat="43.77996" lon="5.41743">
        <ele>380.16</ele>
        <time>2014-10-29T13:08:43Z</time>
      </trkpt>
      <trkpt lat="43.77975" lon="5.41741">
        <ele>379.33</ele>
        <time>2014-10-29T13:09:05Z</time>
      </trkpt>
      <trkpt lat="43.77963" lon="5.41736">
        <ele>378.06</ele>
        <time>2014-10-29T13:09:22Z</time>
      </trkpt>
      <trkpt lat="43.77957" lon="5.41745">
        <ele>375.79</ele>
        <time>2014-10-29T13:09:43Z</time>
      </trkpt>
      <trkpt lat="43.77949" lon="5.41749">
        <ele>375.53</ele>
        <time>2014-10-29T13:10:14Z</time>
      </trkpt>
      <trkpt lat="43.7795" lon="5.41751">
        <ele>375.11</ele>
        <time>2014-10-29T13:11:07Z</time>
      </trkpt>
      <trkpt lat="43.77949" lon="5.41754">
        <ele>375.24</ele>
        <time>2014-10-29T13:12:00Z</time>
      </trkpt>
      <trkpt lat="43.77948" lon="5.41751">
        <ele>374.81</ele>
        <time>2014-10-29T13:12:32Z</time>
      </trkpt>
      <trkpt lat="43.77949" lon="5.41751">
        <ele>374.33</ele>
        <time>2014-10-29T13:12:50Z</time>
      </trkpt>
      <trkpt lat="43.77951" lon="5.41753">
        <ele>374.3</ele>
        <time>2014-10-29T13:13:47Z</time>
      </trkpt>
      <trkpt lat="43.77951" lon="5.41755">
        <ele>374.11</ele>
        <time>2014-10-29T13:14:17Z</time>
      </trkpt>
      <trkpt lat="43.77951" lon="5.41755">
        <ele>373.54</ele>
        <time>2014-10-29T13:14:56Z</time>
      </trkpt>
      <trkpt lat="43.77949" lon="5.41752">
        <ele>373.86</ele>
        <time>2014-10-29T13:15:27Z</time>
      </trkpt>
      <trkpt lat="43.77947" lon="5.41751">
        <ele>374.44</ele>
        <time>2014-10-29T13:15:47Z</time>
      </trkpt>
      <trkpt lat="43.77945" lon="5.41747">
        <ele>374.43</ele>
        <time>2014-10-29T13:16:14Z</time>
      </trkpt>
      <trkpt lat="43.77944" lon="5.4174">
        <ele>374.49</ele>
        <time>2014-10-29T13:16:32Z</time>
      </trkpt>
      <trkpt lat="43.77938" lon="5.41716">
        <ele>374.19</ele>
        <time>2014-10-29T13:16:54Z</time>
      </trkpt>
      <trkpt lat="43.77924" lon="5.41707">
        <ele>372.94</ele>
        <time>2014-10-29T13:17:14Z</time>
      </trkpt>
      <trkpt lat="43.77909" lon="5.41698">
        <ele>371.82</ele>
        <time>2014-10-29T13:17:32Z</time>
      </trkpt>
      <trkpt lat="43.77896" lon="5.41693">
        <ele>371.25</ele>
        <time>2014-10-29T13:17:50Z</time>
      </trkpt>
      <trkpt lat="43.77891" lon="5.41693">
        <ele>371.21</ele>
        <time>2014-10-29T13:17:55Z</time>
      </trkpt>
      <trkpt lat="43.77868" lon="5.41684">
        <ele>371.53</ele>
        <time>2014-10-29T13:18:15Z</time>
      </trkpt>
      <trkpt lat="43.77863" lon="5.41677">
        <ele>372.04</ele>
        <time>2014-10-29T13:18:24Z</time>
      </trkpt>
      <trkpt lat="43.77861" lon="5.41672">
        <ele>372.15</ele>
        <time>2014-10-29T13:18:27Z</time>
      </trkpt>
      <trkpt lat="43.77845" lon="5.41651">
        <ele>371.34</ele>
        <time>2014-10-29T13:18:46Z</time>
      </trkpt>
      <trkpt lat="43.77839" lon="5.41644">
        <ele>370.43</ele>
        <time>2014-10-29T13:18:54Z</time>
      </trkpt>
      <trkpt lat="43.77829" lon="5.41634">
        <ele>369.17</ele>
        <time>2014-10-29T13:19:05Z</time>
      </trkpt>
      <trkpt lat="43.77808" lon="5.41621">
        <ele>368.06</ele>
        <time>2014-10-29T13:19:25Z</time>
      </trkpt>
      <trkpt lat="43.77807" lon="5.4162">
        <ele>367.99</ele>
        <time>2014-10-29T13:19:26Z</time>
      </trkpt>
      <trkpt lat="43.77788" lon="5.41614">
        <ele>366.58</ele>
        <time>2014-10-29T13:19:45Z</time>
      </trkpt>
      <trkpt lat="43.77772" lon="5.41609">
        <ele>365.62</ele>
        <time>2014-10-29T13:20:02Z</time>
      </trkpt>
      <trkpt lat="43.77753" lon="5.41599">
        <ele>365.03</ele>
        <time>2014-10-29T13:20:20Z</time>
      </trkpt>
      <trkpt lat="43.77736" lon="5.41591">
        <ele>364.82</ele>
        <time>2014-10-29T13:20:37Z</time>
      </trkpt>
      <trkpt lat="43.77727" lon="5.41587">
        <ele>363.74</ele>
        <time>2014-10-29T13:20:49Z</time>
      </trkpt>
      <trkpt lat="43.77723" lon="5.41587">
        <ele>363.25</ele>
        <time>2014-10-29T13:20:52Z</time>
      </trkpt>
      <trkpt lat="43.77703" lon="5.41594">
        <ele>360.78</ele>
        <time>2014-10-29T13:21:12Z</time>
      </trkpt>
      <trkpt lat="43.77686" lon="5.41608">
        <ele>358.79</ele>
        <time>2014-10-29T13:21:32Z</time>
      </trkpt>
      <trkpt lat="43.77678" lon="5.41611">
        <ele>358.36</ele>
        <time>2014-10-29T13:21:41Z</time>
      </trkpt>
      <trkpt lat="43.77669" lon="5.41621">
        <ele>358.24</ele>
        <time>2014-10-29T13:22:00Z</time>
      </trkpt>
      <trkpt lat="43.77661" lon="5.4163">
        <ele>357.71</ele>
        <time>2014-10-29T13:22:13Z</time>
      </trkpt>
      <trkpt lat="43.77636" lon="5.41646">
        <ele>356.04</ele>
        <time>2014-10-29T13:22:39Z</time>
      </trkpt>
      <trkpt lat="43.77615" lon="5.41661">
        <ele>355.09</ele>
        <time>2014-10-29T13:23:00Z</time>
      </trkpt>
      <trkpt lat="43.77588" lon="5.41678">
        <ele>354.01</ele>
        <time>2014-10-29T13:23:27Z</time>
      </trkpt>
      <trkpt lat="43.77564" lon="5.41686">
        <ele>352.92</ele>
        <time>2014-10-29T13:23:49Z</time>
      </trkpt>
      <trkpt lat="43.77541" lon="5.41691">
        <ele>352.98</ele>
        <time>2014-10-29T13:24:11Z</time>
      </trkpt>
      <trkpt lat="43.7752" lon="5.41695">
        <ele>353.02</ele>
        <time>2014-10-29T13:24:32Z</time>
      </trkpt>
      <trkpt lat="43.77504" lon="5.41698">
        <ele>352.59</ele>
        <time>2014-10-29T13:24:52Z</time>
      </trkpt>
      <trkpt lat="43.77476" lon="5.41704">
        <ele>353.23</ele>
        <time>2014-10-29T13:25:15Z</time>
      </trkpt>
      <trkpt lat="43.77456" lon="5.41706">
        <ele>353.53</ele>
        <time>2014-10-29T13:25:33Z</time>
      </trkpt>
      <trkpt lat="43.77435" lon="5.41707">
        <ele>353.95</ele>
        <time>2014-10-29T13:25:54Z</time>
      </trkpt>
      <trkpt lat="43.77414" lon="5.41711">
        <ele>354.21</ele>
        <time>2014-10-29T13:26:15Z</time>
      </trkpt>
      <trkpt lat="43.7741" lon="5.41711">
        <ele>354.23</ele>
        <time>2014-10-29T13:26:19Z</time>
      </trkpt>
      <trkpt lat="43.77391" lon="5.41702">
        <ele>354.04</ele>
        <time>2014-10-29T13:26:39Z</time>
      </trkpt>
      <trkpt lat="43.77379" lon="5.41693">
        <ele>353.9</ele>
        <time>2014-10-29T13:26:56Z</time>
      </trkpt>
      <trkpt lat="43.77373" lon="5.41692">
        <ele>353.2</ele>
        <time>2014-10-29T13:27:16Z</time>
      </trkpt>
      <trkpt lat="43.7737" lon="5.41695">
        <ele>353.59</ele>
        <time>2014-10-29T13:27:35Z</time>
      </trkpt>
      <trkpt lat="43.77369" lon="5.41693">
        <ele>354.11</ele>
        <time>2014-10-29T13:28:15Z</time>
      </trkpt>
      <trkpt lat="43.77367" lon="5.41686">
        <ele>353.67</ele>
        <time>2014-10-29T13:28:30Z</time>
      </trkpt>
      <trkpt lat="43.77359" lon="5.41675">
        <ele>353.14</ele>
        <time>2014-10-29T13:28:42Z</time>
      </trkpt>
      <trkpt lat="43.7735" lon="5.41664">
        <ele>352.61</ele>
        <time>2014-10-29T13:28:53Z</time>
      </trkpt>
      <trkpt lat="43.7734" lon="5.41653">
        <ele>351.95</ele>
        <time>2014-10-29T13:29:05Z</time>
      </trkpt>
      <trkpt lat="43.77321" lon="5.41636">
        <ele>351.05</ele>
        <time>2014-10-29T13:29:22Z</time>
      </trkpt>
      <trkpt lat="43.77299" lon="5.41615">
        <ele>350.1</ele>
        <time>2014-10-29T13:29:43Z</time>
      </trkpt>
      <trkpt lat="43.77283" lon="5.41601">
        <ele>349.18</ele>
        <time>2014-10-29T13:30:00Z</time>
      </trkpt>
      <trkpt lat="43.77266" lon="5.41588">
        <ele>348.58</ele>
        <time>2014-10-29T13:30:16Z</time>
      </trkpt>
      <trkpt lat="43.77246" lon="5.4157">
        <ele>347.42</ele>
        <time>2014-10-29T13:30:36Z</time>
      </trkpt>
      <trkpt lat="43.77228" lon="5.41554">
        <ele>346.64</ele>
        <time>2014-10-29T13:30:53Z</time>
      </trkpt>
      <trkpt lat="43.77226" lon="5.41551">
        <ele>346.61</ele>
        <time>2014-10-29T13:30:56Z</time>
      </trkpt>
      <trkpt lat="43.77222" lon="5.41548">
        <ele>346.53</ele>
        <time>2014-10-29T13:31:00Z</time>
      </trkpt>
      <trkpt lat="43.77206" lon="5.41531">
        <ele>345.46</ele>
        <time>2014-10-29T13:31:20Z</time>
      </trkpt>
      <trkpt lat="43.77202" lon="5.41526">
        <ele>345.17</ele>
        <time>2014-10-29T13:31:26Z</time>
      </trkpt>
      <trkpt lat="43.77196" lon="5.41519">
        <ele>344.92</ele>
        <time>2014-10-29T13:31:34Z</time>
      </trkpt>
      <trkpt lat="43.77178" lon="5.41514">
        <ele>343.51</ele>
        <time>2014-10-29T13:31:50Z</time>
      </trkpt>
      <trkpt lat="43.77168" lon="5.41511">
        <ele>342.86</ele>
        <time>2014-10-29T13:31:59Z</time>
      </trkpt>
      <trkpt lat="43.77164" lon="5.41511">
        <ele>342.43</ele>
        <time>2014-10-29T13:32:03Z</time>
      </trkpt>
      <trkpt lat="43.77152" lon="5.41511">
        <ele>341</ele>
        <time>2014-10-29T13:32:21Z</time>
      </trkpt>
      <trkpt lat="43.7715" lon="5.41511">
        <ele>340.8</ele>
        <time>2014-10-29T13:32:46Z</time>
      </trkpt>
      <trkpt lat="43.77147" lon="5.4151">
        <ele>341.07</ele>
        <time>2014-10-29T13:32:50Z</time>
      </trkpt>
      <trkpt lat="43.77127" lon="5.41505">
        <ele>340.1</ele>
        <time>2014-10-29T13:33:10Z</time>
      </trkpt>
      <trkpt lat="43.77101" lon="5.415">
        <ele>338.9</ele>
        <time>2014-10-29T13:33:32Z</time>
      </trkpt>
      <trkpt lat="43.77079" lon="5.41489">
        <ele>337.25</ele>
        <time>2014-10-29T13:33:54Z</time>
      </trkpt>
      <trkpt lat="43.77054" lon="5.4148">
        <ele>335.41</ele>
        <time>2014-10-29T13:34:16Z</time>
      </trkpt>
      <trkpt lat="43.77027" lon="5.41472">
        <ele>334.26</ele>
        <time>2014-10-29T13:34:40Z</time>
      </trkpt>
      <trkpt lat="43.76997" lon="5.41466">
        <ele>333.01</ele>
        <time>2014-10-29T13:35:06Z</time>
      </trkpt>
      <trkpt lat="43.7697" lon="5.41459">
        <ele>331.84</ele>
        <time>2014-10-29T13:35:31Z</time>
      </trkpt>
      <trkpt lat="43.7694" lon="5.41447">
        <ele>330.65</ele>
        <time>2014-10-29T13:35:58Z</time>
      </trkpt>
      <trkpt lat="43.76912" lon="5.41438">
        <ele>329.58</ele>
        <time>2014-10-29T13:36:23Z</time>
      </trkpt>
      <trkpt lat="43.7688" lon="5.41429">
        <ele>328.65</ele>
        <time>2014-10-29T13:36:52Z</time>
      </trkpt>
      <trkpt lat="43.76848" lon="5.41421">
        <ele>327.64</ele>
        <time>2014-10-29T13:37:19Z</time>
      </trkpt>
      <trkpt lat="43.76821" lon="5.4142">
        <ele>327.72</ele>
        <time>2014-10-29T13:37:44Z</time>
      </trkpt>
      <trkpt lat="43.76809" lon="5.41433">
        <ele>328.57</ele>
        <time>2014-10-29T13:38:03Z</time>
      </trkpt>
      <trkpt lat="43.76794" lon="5.41439">
        <ele>329.17</ele>
        <time>2014-10-29T13:38:17Z</time>
      </trkpt>
      <trkpt lat="43.76769" lon="5.41443">
        <ele>330.79</ele>
        <time>2014-10-29T13:38:40Z</time>
      </trkpt>
      <trkpt lat="43.76752" lon="5.41451">
        <ele>331.73</ele>
        <time>2014-10-29T13:38:59Z</time>
      </trkpt>
      <trkpt lat="43.76741" lon="5.41459">
        <ele>332.27</ele>
        <time>2014-10-29T13:39:13Z</time>
      </trkpt>
      <trkpt lat="43.76738" lon="5.41461">
        <ele>332.28</ele>
        <time>2014-10-29T13:39:16Z</time>
      </trkpt>
      <trkpt lat="43.76718" lon="5.41471">
        <ele>332.38</ele>
        <time>2014-10-29T13:39:36Z</time>
      </trkpt>
      <trkpt lat="43.76709" lon="5.41474">
        <ele>332.19</ele>
        <time>2014-10-29T13:39:46Z</time>
      </trkpt>
      <trkpt lat="43.76705" lon="5.41475">
        <ele>332.19</ele>
        <time>2014-10-29T13:39:50Z</time>
      </trkpt>
      <trkpt lat="43.76688" lon="5.41483">
        <ele>331.91</ele>
        <time>2014-10-29T13:40:06Z</time>
      </trkpt>
      <trkpt lat="43.76662" lon="5.41487">
        <ele>330.97</ele>
        <time>2014-10-29T13:40:29Z</time>
      </trkpt>
      <trkpt lat="43.76646" lon="5.41477">
        <ele>330.68</ele>
        <time>2014-10-29T13:40:45Z</time>
      </trkpt>
      <trkpt lat="43.7663" lon="5.41462">
        <ele>329.89</ele>
        <time>2014-10-29T13:41:03Z</time>
      </trkpt>
      <trkpt lat="43.76611" lon="5.41457">
        <ele>328.83</ele>
        <time>2014-10-29T13:41:21Z</time>
      </trkpt>
      <trkpt lat="43.76595" lon="5.41456">
        <ele>327.74</ele>
        <time>2014-10-29T13:41:36Z</time>
      </trkpt>
      <trkpt lat="43.76573" lon="5.41453">
        <ele>326.72</ele>
        <time>2014-10-29T13:41:58Z</time>
      </trkpt>
      <trkpt lat="43.76557" lon="5.41449">
        <ele>325.05</ele>
        <time>2014-10-29T13:42:20Z</time>
      </trkpt>
      <trkpt lat="43.76545" lon="5.41452">
        <ele>324.17</ele>
        <time>2014-10-29T13:42:37Z</time>
      </trkpt>
      <trkpt lat="43.76531" lon="5.41458">
        <ele>323.28</ele>
        <time>2014-10-29T13:42:54Z</time>
      </trkpt>
      <trkpt lat="43.76526" lon="5.41459">
        <ele>323.01</ele>
        <time>2014-10-29T13:42:59Z</time>
      </trkpt>
      <trkpt lat="43.76505" lon="5.41462">
        <ele>321.48</ele>
        <time>2014-10-29T13:43:20Z</time>
      </trkpt>
      <trkpt lat="43.76485" lon="5.41466">
        <ele>320.08</ele>
        <time>2014-10-29T13:43:42Z</time>
      </trkpt>
      <trkpt lat="43.76477" lon="5.41468">
        <ele>319.23</ele>
        <time>2014-10-29T13:43:52Z</time>
      </trkpt>
      <trkpt lat="43.76467" lon="5.41475">
        <ele>318.09</ele>
        <time>2014-10-29T13:44:07Z</time>
      </trkpt>
      <trkpt lat="43.76459" lon="5.41474">
        <ele>317.55</ele>
        <time>2014-10-29T13:44:24Z</time>
      </trkpt>
      <trkpt lat="43.76459" lon="5.41474">
        <ele>317.41</ele>
        <time>2014-10-29T13:44:50Z</time>
      </trkpt>
      <trkpt lat="43.76458" lon="5.41475">
        <ele>317.46</ele>
        <time>2014-10-29T13:45:20Z</time>
      </trkpt>
      <trkpt lat="43.76456" lon="5.41475">
        <ele>317.4</ele>
        <time>2014-10-29T13:46:04Z</time>
      </trkpt>
      <trkpt lat="43.76457" lon="5.41476">
        <ele>317.16</ele>
        <time>2014-10-29T13:46:51Z</time>
      </trkpt>
      <trkpt lat="43.76457" lon="5.41477">
        <ele>317.58</ele>
        <time>2014-10-29T13:47:22Z</time>
      </trkpt>
      <trkpt lat="43.76457" lon="5.41477">
        <ele>317.29</ele>
        <time>2014-10-29T13:47:54Z</time>
      </trkpt>
      <trkpt lat="43.76455" lon="5.41487">
        <ele>317.15</ele>
        <time>2014-10-29T13:48:16Z</time>
      </trkpt>
      <trkpt lat="43.76452" lon="5.41501">
        <ele>317.26</ele>
        <time>2014-10-29T13:48:32Z</time>
      </trkpt>
      <trkpt lat="43.76452" lon="5.41528">
        <ele>318.54</ele>
        <time>2014-10-29T13:48:56Z</time>
      </trkpt>
      <trkpt lat="43.76456" lon="5.4155">
        <ele>319.77</ele>
        <time>2014-10-29T13:49:15Z</time>
      </trkpt>
      <trkpt lat="43.76463" lon="5.41572">
        <ele>321.52</ele>
        <time>2014-10-29T13:49:35Z</time>
      </trkpt>
      <trkpt lat="43.76465" lon="5.41599">
        <ele>322.63</ele>
        <time>2014-10-29T13:49:55Z</time>
      </trkpt>
      <trkpt lat="43.76463" lon="5.41624">
        <ele>324.05</ele>
        <time>2014-10-29T13:50:14Z</time>
      </trkpt>
      <trkpt lat="43.76463" lon="5.41653">
        <ele>325.51</ele>
        <time>2014-10-29T13:50:36Z</time>
      </trkpt>
      <trkpt lat="43.76469" lon="5.41685">
        <ele>327.33</ele>
        <time>2014-10-29T13:51:01Z</time>
      </trkpt>
      <trkpt lat="43.76474" lon="5.41719">
        <ele>328.49</ele>
        <time>2014-10-29T13:51:25Z</time>
      </trkpt>
      <trkpt lat="43.76479" lon="5.41757">
        <ele>328.51</ele>
        <time>2014-10-29T13:51:51Z</time>
      </trkpt>
      <trkpt lat="43.76482" lon="5.41788">
        <ele>328.97</ele>
        <time>2014-10-29T13:52:12Z</time>
      </trkpt>
      <trkpt lat="43.76485" lon="5.41822">
        <ele>329.95</ele>
        <time>2014-10-29T13:52:35Z</time>
      </trkpt>
      <trkpt lat="43.76489" lon="5.41849">
        <ele>330.34</ele>
        <time>2014-10-29T13:52:54Z</time>
      </trkpt>
      <trkpt lat="43.7649" lon="5.41879">
        <ele>330.46</ele>
        <time>2014-10-29T13:53:14Z</time>
      </trkpt>
      <trkpt lat="43.76492" lon="5.41904">
        <ele>330.48</ele>
        <time>2014-10-29T13:53:30Z</time>
      </trkpt>
      <trkpt lat="43.76492" lon="5.41919">
        <ele>330.05</ele>
        <time>2014-10-29T13:53:42Z</time>
      </trkpt>
      <trkpt lat="43.76492" lon="5.41923">
        <ele>330.02</ele>
        <time>2014-10-29T13:53:44Z</time>
      </trkpt>
      <trkpt lat="43.76496" lon="5.41954">
        <ele>329.33</ele>
        <time>2014-10-29T13:54:03Z</time>
      </trkpt>
      <trkpt lat="43.76501" lon="5.41986">
        <ele>328.6</ele>
        <time>2014-10-29T13:54:24Z</time>
      </trkpt>
      <trkpt lat="43.7651" lon="5.42019">
        <ele>328.42</ele>
        <time>2014-10-29T13:54:46Z</time>
      </trkpt>
      <trkpt lat="43.76519" lon="5.42056">
        <ele>327.85</ele>
        <time>2014-10-29T13:55:11Z</time>
      </trkpt>
      <trkpt lat="43.76524" lon="5.42087">
        <ele>327.76</ele>
        <time>2014-10-29T13:55:31Z</time>
      </trkpt>
      <trkpt lat="43.76524" lon="5.42121">
        <ele>327.19</ele>
        <time>2014-10-29T13:55:53Z</time>
      </trkpt>
      <trkpt lat="43.76529" lon="5.42149">
        <ele>326.72</ele>
        <time>2014-10-29T13:56:12Z</time>
      </trkpt>
      <trkpt lat="43.76533" lon="5.42165">
        <ele>325.68</ele>
        <time>2014-10-29T13:56:33Z</time>
      </trkpt>
      <trkpt lat="43.76533" lon="5.42177">
        <ele>325.53</ele>
        <time>2014-10-29T13:56:50Z</time>
      </trkpt>
      <trkpt lat="43.76533" lon="5.42177">
        <ele>324.7</ele>
        <time>2014-10-29T13:57:16Z</time>
      </trkpt>
      <trkpt lat="43.76534" lon="5.42183">
        <ele>325.01</ele>
        <time>2014-10-29T13:57:52Z</time>
      </trkpt>
      <trkpt lat="43.76544" lon="5.42206">
        <ele>323.58</ele>
        <time>2014-10-29T13:58:14Z</time>
      </trkpt>
      <trkpt lat="43.76549" lon="5.42228">
        <ele>322.87</ele>
        <time>2014-10-29T13:58:32Z</time>
      </trkpt>
      <trkpt lat="43.76557" lon="5.42255">
        <ele>321.56</ele>
        <time>2014-10-29T13:58:53Z</time>
      </trkpt>
      <trkpt lat="43.76569" lon="5.42286">
        <ele>319.4</ele>
        <time>2014-10-29T13:59:17Z</time>
      </trkpt>
      <trkpt lat="43.76569" lon="5.42314">
        <ele>317.71</ele>
        <time>2014-10-29T13:59:36Z</time>
      </trkpt>
      <trkpt lat="43.76576" lon="5.42339">
        <ele>316.87</ele>
        <time>2014-10-29T13:59:58Z</time>
      </trkpt>
      <trkpt lat="43.7659" lon="5.42362">
        <ele>315.9</ele>
        <time>2014-10-29T14:00:20Z</time>
      </trkpt>
      <trkpt lat="43.76607" lon="5.42393">
        <ele>315.48</ele>
        <time>2014-10-29T14:00:45Z</time>
      </trkpt>
      <trkpt lat="43.76626" lon="5.42428">
        <ele>315.48</ele>
        <time>2014-10-29T14:01:13Z</time>
      </trkpt>
      <trkpt lat="43.76645" lon="5.42457">
        <ele>315.82</ele>
        <time>2014-10-29T14:01:39Z</time>
      </trkpt>
      <trkpt lat="43.76666" lon="5.42485">
        <ele>316.09</ele>
        <time>2014-10-29T14:02:05Z</time>
      </trkpt>
      <trkpt lat="43.76688" lon="5.42514">
        <ele>316.49</ele>
        <time>2014-10-29T14:02:32Z</time>
      </trkpt>
      <trkpt lat="43.76709" lon="5.42543">
        <ele>316.97</ele>
        <time>2014-10-29T14:02:58Z</time>
      </trkpt>
      <trkpt lat="43.76729" lon="5.42574">
        <ele>317.99</ele>
        <time>2014-10-29T14:03:27Z</time>
      </trkpt>
      <trkpt lat="43.76743" lon="5.42598">
        <ele>318.86</ele>
        <time>2014-10-29T14:03:48Z</time>
      </trkpt>
      <trkpt lat="43.76761" lon="5.42628">
        <ele>319.85</ele>
        <time>2014-10-29T14:04:14Z</time>
      </trkpt>
      <trkpt lat="43.76783" lon="5.42647">
        <ele>321.68</ele>
        <time>2014-10-29T14:04:40Z</time>
      </trkpt>
      <trkpt lat="43.76806" lon="5.42656">
        <ele>322.46</ele>
        <time>2014-10-29T14:05:03Z</time>
      </trkpt>
      <trkpt lat="43.76835" lon="5.42664">
        <ele>323.13</ele>
        <time>2014-10-29T14:05:30Z</time>
      </trkpt>
      <trkpt lat="43.7686" lon="5.42678">
        <ele>323.95</ele>
        <time>2014-10-29T14:05:54Z</time>
      </trkpt>
      <trkpt lat="43.76884" lon="5.42707">
        <ele>325.03</ele>
        <time>2014-10-29T14:06:23Z</time>
      </trkpt>
      <trkpt lat="43.76901" lon="5.42735">
        <ele>326.46</ele>
        <time>2014-10-29T14:06:49Z</time>
      </trkpt>
      <trkpt lat="43.76907" lon="5.42756">
        <ele>328.41</ele>
        <time>2014-10-29T14:07:09Z</time>
      </trkpt>
      <trkpt lat="43.76913" lon="5.42767">
        <ele>329.4</ele>
        <time>2014-10-29T14:07:26Z</time>
      </trkpt>
      <trkpt lat="43.76915" lon="5.42772">
        <ele>330.46</ele>
        <time>2014-10-29T14:07:42Z</time>
      </trkpt>
      <trkpt lat="43.76929" lon="5.42764">
        <ele>331.04</ele>
        <time>2014-10-29T14:08:01Z</time>
      </trkpt>
      <trkpt lat="43.76944" lon="5.42759">
        <ele>332.7</ele>
        <time>2014-10-29T14:08:21Z</time>
      </trkpt>
      <trkpt lat="43.76961" lon="5.42758">
        <ele>335</ele>
        <time>2014-10-29T14:08:40Z</time>
      </trkpt>
      <trkpt lat="43.76986" lon="5.42759">
        <ele>335.35</ele>
        <time>2014-10-29T14:09:04Z</time>
      </trkpt>
      <trkpt lat="43.77008" lon="5.42763">
        <ele>335.42</ele>
        <time>2014-10-29T14:09:24Z</time>
      </trkpt>
      <trkpt lat="43.77038" lon="5.42767">
        <ele>334.26</ele>
        <time>2014-10-29T14:09:51Z</time>
      </trkpt>
      <trkpt lat="43.77069" lon="5.42771">
        <ele>333.4</ele>
        <time>2014-10-29T14:10:19Z</time>
      </trkpt>
      <trkpt lat="43.77096" lon="5.42776">
        <ele>333.48</ele>
        <time>2014-10-29T14:10:44Z</time>
      </trkpt>
      <trkpt lat="43.77099" lon="5.42793">
        <ele>333.45</ele>
        <time>2014-10-29T14:10:59Z</time>
      </trkpt>
      <trkpt lat="43.77095" lon="5.4283">
        <ele>334.4</ele>
        <time>2014-10-29T14:11:25Z</time>
      </trkpt>
      <trkpt lat="43.77096" lon="5.42863">
        <ele>334.87</ele>
        <time>2014-10-29T14:11:47Z</time>
      </trkpt>
      <trkpt lat="43.77115" lon="5.42871">
        <ele>335.77</ele>
        <time>2014-10-29T14:12:08Z</time>
      </trkpt>
      <trkpt lat="43.77139" lon="5.42877">
        <ele>336.84</ele>
        <time>2014-10-29T14:12:33Z</time>
      </trkpt>
      <trkpt lat="43.77164" lon="5.42883">
        <ele>337.88</ele>
        <time>2014-10-29T14:12:58Z</time>
      </trkpt>
      <trkpt lat="43.77168" lon="5.42897">
        <ele>337.97</ele>
        <time>2014-10-29T14:13:10Z</time>
      </trkpt>
      <trkpt lat="43.77165" lon="5.42927">
        <ele>338.51</ele>
        <time>2014-10-29T14:13:31Z</time>
      </trkpt>
      <trkpt lat="43.77167" lon="5.42955">
        <ele>339.46</ele>
        <time>2014-10-29T14:13:55Z</time>
      </trkpt>
      <trkpt lat="43.77171" lon="5.42957">
        <ele>339.87</ele>
        <time>2014-10-29T14:14:00Z</time>
      </trkpt>
      <trkpt lat="43.7719" lon="5.42959">
        <ele>341.48</ele>
        <time>2014-10-29T14:14:21Z</time>
      </trkpt>
      <trkpt lat="43.77216" lon="5.42961">
        <ele>343.89</ele>
        <time>2014-10-29T14:14:49Z</time>
      </trkpt>
      <trkpt lat="43.77229" lon="5.42958">
        <ele>345.15</ele>
        <time>2014-10-29T14:15:06Z</time>
      </trkpt>
      <trkpt lat="43.77251" lon="5.42945">
        <ele>346.35</ele>
        <time>2014-10-29T14:15:30Z</time>
      </trkpt>
      <trkpt lat="43.77277" lon="5.42941">
        <ele>346.94</ele>
        <time>2014-10-29T14:15:55Z</time>
      </trkpt>
      <trkpt lat="43.77298" lon="5.42954">
        <ele>348.4</ele>
        <time>2014-10-29T14:16:19Z</time>
      </trkpt>
      <trkpt lat="43.7732" lon="5.4297">
        <ele>350.93</ele>
        <time>2014-10-29T14:16:44Z</time>
      </trkpt>
      <trkpt lat="43.77339" lon="5.42983">
        <ele>351.57</ele>
        <time>2014-10-29T14:17:07Z</time>
      </trkpt>
      <trkpt lat="43.77357" lon="5.42979">
        <ele>352.1</ele>
        <time>2014-10-29T14:17:26Z</time>
      </trkpt>
      <trkpt lat="43.77376" lon="5.42967">
        <ele>350.78</ele>
        <time>2014-10-29T14:17:46Z</time>
      </trkpt>
      <trkpt lat="43.77399" lon="5.42978">
        <ele>351.31</ele>
        <time>2014-10-29T14:18:09Z</time>
      </trkpt>
      <trkpt lat="43.77414" lon="5.42996">
        <ele>352.84</ele>
        <time>2014-10-29T14:18:30Z</time>
      </trkpt>
      <trkpt lat="43.77424" lon="5.43007">
        <ele>354.99</ele>
        <time>2014-10-29T14:18:45Z</time>
      </trkpt>
      <trkpt lat="43.77439" lon="5.43023">
        <ele>356.84</ele>
        <time>2014-10-29T14:19:07Z</time>
      </trkpt>
      <trkpt lat="43.77443" lon="5.43033">
        <ele>357.16</ele>
        <time>2014-10-29T14:19:23Z</time>
      </trkpt>
      <trkpt lat="43.77441" lon="5.43039">
        <ele>357.17</ele>
        <time>2014-10-29T14:19:54Z</time>
      </trkpt>
      <trkpt lat="43.7744" lon="5.4304">
        <ele>357.31</ele>
        <time>2014-10-29T14:20:34Z</time>
      </trkpt>
      <trkpt lat="43.77442" lon="5.43037">
        <ele>357.38</ele>
        <time>2014-10-29T14:21:01Z</time>
      </trkpt>
      <trkpt lat="43.77443" lon="5.43037">
        <ele>357.51</ele>
        <time>2014-10-29T14:21:25Z</time>
      </trkpt>
      <trkpt lat="43.77443" lon="5.43036">
        <ele>356.08</ele>
        <time>2014-10-29T14:21:55Z</time>
      </trkpt>
      <trkpt lat="43.77449" lon="5.43041">
        <ele>357.43</ele>
        <time>2014-10-29T14:22:15Z</time>
      </trkpt>
      <trkpt lat="43.77456" lon="5.43045">
        <ele>357.53</ele>
        <time>2014-10-29T14:22:29Z</time>
      </trkpt>
      <trkpt lat="43.77469" lon="5.43054">
        <ele>358.41</ele>
        <time>2014-10-29T14:22:46Z</time>
      </trkpt>
      <trkpt lat="43.77489" lon="5.43065">
        <ele>358.64</ele>
        <time>2014-10-29T14:23:09Z</time>
      </trkpt>
      <trkpt lat="43.77511" lon="5.43078">
        <ele>359</ele>
        <time>2014-10-29T14:23:32Z</time>
      </trkpt>
      <trkpt lat="43.77533" lon="5.43082">
        <ele>359.6</ele>
        <time>2014-10-29T14:23:55Z</time>
      </trkpt>
      <trkpt lat="43.77554" lon="5.43083">
        <ele>359.6</ele>
        <time>2014-10-29T14:24:15Z</time>
      </trkpt>
      <trkpt lat="43.77569" lon="5.43083">
        <ele>359.4</ele>
        <time>2014-10-29T14:24:32Z</time>
      </trkpt>
      <trkpt lat="43.77586" lon="5.43085">
        <ele>359.34</ele>
        <time>2014-10-29T14:24:52Z</time>
      </trkpt>
      <trkpt lat="43.77605" lon="5.43092">
        <ele>359.86</ele>
        <time>2014-10-29T14:25:12Z</time>
      </trkpt>
      <trkpt lat="43.77624" lon="5.43095">
        <ele>360.09</ele>
        <time>2014-10-29T14:25:35Z</time>
      </trkpt>
      <trkpt lat="43.77638" lon="5.43106">
        <ele>360.54</ele>
        <time>2014-10-29T14:25:57Z</time>
      </trkpt>
      <trkpt lat="43.77643" lon="5.43132">
        <ele>360.83</ele>
        <time>2014-10-29T14:26:19Z</time>
      </trkpt>
      <trkpt lat="43.77651" lon="5.43147">
        <ele>359.82</ele>
        <time>2014-10-29T14:26:38Z</time>
      </trkpt>
      <trkpt lat="43.77663" lon="5.43155">
        <ele>358.45</ele>
        <time>2014-10-29T14:26:56Z</time>
      </trkpt>
      <trkpt lat="43.77669" lon="5.43162">
        <ele>357.86</ele>
        <time>2014-10-29T14:27:11Z</time>
      </trkpt>
      <trkpt lat="43.7767" lon="5.43171">
        <ele>357.32</ele>
        <time>2014-10-29T14:27:32Z</time>
      </trkpt>
      <trkpt lat="43.77671" lon="5.43191">
        <ele>356.5</ele>
        <time>2014-10-29T14:27:54Z</time>
      </trkpt>
      <trkpt lat="43.77665" lon="5.43216">
        <ele>355.05</ele>
        <time>2014-10-29T14:28:17Z</time>
      </trkpt>
      <trkpt lat="43.77658" lon="5.43243">
        <ele>353.39</ele>
        <time>2014-10-29T14:28:38Z</time>
      </trkpt>
      <trkpt lat="43.77646" lon="5.4327">
        <ele>351.84</ele>
        <time>2014-10-29T14:29:00Z</time>
      </trkpt>
      <trkpt lat="43.77639" lon="5.43287">
        <ele>350.42</ele>
        <time>2014-10-29T14:29:17Z</time>
      </trkpt>
      <trkpt lat="43.77629" lon="5.43306">
        <ele>349.23</ele>
        <time>2014-10-29T14:29:35Z</time>
      </trkpt>
      <trkpt lat="43.77621" lon="5.43322">
        <ele>348.18</ele>
        <time>2014-10-29T14:29:49Z</time>
      </trkpt>
      <trkpt lat="43.77607" lon="5.43353">
        <ele>346.05</ele>
        <time>2014-10-29T14:30:12Z</time>
      </trkpt>
      <trkpt lat="43.77594" lon="5.43381">
        <ele>344.47</ele>
        <time>2014-10-29T14:30:34Z</time>
      </trkpt>
      <trkpt lat="43.77581" lon="5.43404">
        <ele>342.87</ele>
        <time>2014-10-29T14:30:53Z</time>
      </trkpt>
      <trkpt lat="43.77569" lon="5.43431">
        <ele>341.82</ele>
        <time>2014-10-29T14:31:12Z</time>
      </trkpt>
      <trkpt lat="43.77558" lon="5.43455">
        <ele>340.71</ele>
        <time>2014-10-29T14:31:31Z</time>
      </trkpt>
      <trkpt lat="43.77551" lon="5.43474">
        <ele>340.17</ele>
        <time>2014-10-29T14:31:45Z</time>
      </trkpt>
      <trkpt lat="43.77541" lon="5.43496">
        <ele>339.02</ele>
        <time>2014-10-29T14:32:03Z</time>
      </trkpt>
      <trkpt lat="43.77536" lon="5.43513">
        <ele>338.6</ele>
        <time>2014-10-29T14:32:19Z</time>
      </trkpt>
      <trkpt lat="43.77524" lon="5.43535">
        <ele>337.89</ele>
        <time>2014-10-29T14:32:38Z</time>
      </trkpt>
      <trkpt lat="43.77514" lon="5.43558">
        <ele>337.37</ele>
        <time>2014-10-29T14:32:55Z</time>
      </trkpt>
      <trkpt lat="43.77501" lon="5.43585">
        <ele>337.35</ele>
        <time>2014-10-29T14:33:15Z</time>
      </trkpt>
      <trkpt lat="43.77483" lon="5.43622">
        <ele>337.51</ele>
        <time>2014-10-29T14:33:41Z</time>
      </trkpt>
      <trkpt lat="43.77462" lon="5.43648">
        <ele>337.41</ele>
        <time>2014-10-29T14:34:05Z</time>
      </trkpt>
      <trkpt lat="43.77452" lon="5.43661">
        <ele>337.23</ele>
        <time>2014-10-29T14:34:18Z</time>
      </trkpt>
      <trkpt lat="43.77454" lon="5.4369">
        <ele>337.62</ele>
        <time>2014-10-29T14:34:37Z</time>
      </trkpt>
      <trkpt lat="43.77454" lon="5.43708">
        <ele>337.77</ele>
        <time>2014-10-29T14:34:50Z</time>
      </trkpt>
      <trkpt lat="43.77454" lon="5.4373">
        <ele>338.1</ele>
        <time>2014-10-29T14:35:05Z</time>
      </trkpt>
      <trkpt lat="43.77456" lon="5.43751">
        <ele>338.41</ele>
        <time>2014-10-29T14:35:20Z</time>
      </trkpt>
      <trkpt lat="43.77461" lon="5.43773">
        <ele>338.71</ele>
        <time>2014-10-29T14:35:35Z</time>
      </trkpt>
      <trkpt lat="43.77465" lon="5.43793">
        <ele>339.04</ele>
        <time>2014-10-29T14:35:51Z</time>
      </trkpt>
      <trkpt lat="43.77466" lon="5.43814">
        <ele>338.96</ele>
        <time>2014-10-29T14:36:08Z</time>
      </trkpt>
      <trkpt lat="43.7747" lon="5.43839">
        <ele>338.6</ele>
        <time>2014-10-29T14:36:24Z</time>
      </trkpt>
      <trkpt lat="43.77471" lon="5.4386">
        <ele>338.85</ele>
        <time>2014-10-29T14:36:41Z</time>
      </trkpt>
      <trkpt lat="43.77479" lon="5.43889">
        <ele>339.05</ele>
        <time>2014-10-29T14:37:00Z</time>
      </trkpt>
      <trkpt lat="43.77483" lon="5.43901">
        <ele>337.75</ele>
        <time>2014-10-29T14:37:15Z</time>
      </trkpt>
      <trkpt lat="43.77484" lon="5.43901">
        <ele>361.63</ele>
        <time>2014-10-29T14:37:19Z</time>
      </trkpt>
    </trkseg>
  </trk>
</gpx>